<?xml version='1.0' encoding='UTF-8'?>
<gpx version="1.1" creator="https://www.komoot.de" xmlns="http://www.topografix.com/GPX/1/1" xmlns:xsi="http://www.w3.org/2001/XMLSchema-instance" xsi:schemaLocation="http://www.topografix.com/GPX/1/1 http://www.topografix.com/GPX/1/1/gpx.xsd">
  <metadata>
    <name>Yehiam Single trail from road 70</name>
    <author>
      <link href="https://www.komoot.de">
        <text>komoot</text>
        <type>text/html</type>
      </link>
    </author>
  </metadata>
  <trk>
    <name>Yehiam Single trail from road 70</name>
    <trkseg>
      <trkpt lat="33.009772" lon="35.147851">
        <ele>69.765880</ele>
        <time>2022-10-25T13:07:58.669Z</time>
      </trkpt>
      <trkpt lat="33.009795" lon="35.148032">
        <ele>69.765880</ele>
        <time>2022-10-25T13:08:04.767Z</time>
      </trkpt>
      <trkpt lat="33.009659" lon="35.148096">
        <ele>69.765880</ele>
        <time>2022-10-25T13:08:09.248Z</time>
      </trkpt>
      <trkpt lat="33.009655" lon="35.148118">
        <ele>69.765880</ele>
        <time>2022-10-25T13:08:09.924Z</time>
      </trkpt>
      <trkpt lat="33.009630" lon="35.148280">
        <ele>69.765880</ele>
        <time>2022-10-25T13:08:15.801Z</time>
      </trkpt>
      <trkpt lat="33.009517" lon="35.148446">
        <ele>69.765880</ele>
        <time>2022-10-25T13:08:22.479Z</time>
      </trkpt>
      <trkpt lat="33.009477" lon="35.148614">
        <ele>69.765880</ele>
        <time>2022-10-25T13:08:28.897Z</time>
      </trkpt>
      <trkpt lat="33.009343" lon="35.148706">
        <ele>69.882393</ele>
        <time>2022-10-25T13:08:35.811Z</time>
      </trkpt>
      <trkpt lat="33.009146" lon="35.148736">
        <ele>70.494935</ele>
        <time>2022-10-25T13:08:44.854Z</time>
      </trkpt>
      <trkpt lat="33.009089" lon="35.149024">
        <ele>71.260297</ele>
        <time>2022-10-25T13:08:56.506Z</time>
      </trkpt>
      <trkpt lat="33.009091" lon="35.149193">
        <ele>71.697450</ele>
        <time>2022-10-25T13:09:04.258Z</time>
      </trkpt>
      <trkpt lat="33.009233" lon="35.149397">
        <ele>72.383174</ele>
        <time>2022-10-25T13:09:14.717Z</time>
      </trkpt>
      <trkpt lat="33.009435" lon="35.150360">
        <ele>74.950656</ele>
        <time>2022-10-25T13:09:55.539Z</time>
      </trkpt>
      <trkpt lat="33.009554" lon="35.150684">
        <ele>75.551254</ele>
        <time>2022-10-25T13:10:09.514Z</time>
      </trkpt>
      <trkpt lat="33.009644" lon="35.150789">
        <ele>75.718536</ele>
        <time>2022-10-25T13:10:15.457Z</time>
      </trkpt>
      <trkpt lat="33.009947" lon="35.150933">
        <ele>76.151895</ele>
        <time>2022-10-25T13:10:29.643Z</time>
      </trkpt>
      <trkpt lat="33.010029" lon="35.151059">
        <ele>76.329592</ele>
        <time>2022-10-25T13:10:35.153Z</time>
      </trkpt>
      <trkpt lat="33.010043" lon="35.151170">
        <ele>76.454652</ele>
        <time>2022-10-25T13:10:38.936Z</time>
      </trkpt>
      <trkpt lat="33.009978" lon="35.151820">
        <ele>77.183971</ele>
        <time>2022-10-25T13:10:58.984Z</time>
      </trkpt>
      <trkpt lat="33.009740" lon="35.152074">
        <ele>77.608319</ele>
        <time>2022-10-25T13:11:08.894Z</time>
      </trkpt>
      <trkpt lat="33.009673" lon="35.152245">
        <ele>77.636432</ele>
        <time>2022-10-25T13:11:13.505Z</time>
      </trkpt>
      <trkpt lat="33.009669" lon="35.152590">
        <ele>77.414415</ele>
        <time>2022-10-25T13:11:22.051Z</time>
      </trkpt>
      <trkpt lat="33.009626" lon="35.152861">
        <ele>77.236942</ele>
        <time>2022-10-25T13:11:28.774Z</time>
      </trkpt>
      <trkpt lat="33.009501" lon="35.153133">
        <ele>77.037360</ele>
        <time>2022-10-25T13:11:36.296Z</time>
      </trkpt>
      <trkpt lat="33.009474" lon="35.153585">
        <ele>76.745775</ele>
        <time>2022-10-25T13:11:47.417Z</time>
      </trkpt>
      <trkpt lat="33.009559" lon="35.153746">
        <ele>76.623355</ele>
        <time>2022-10-25T13:11:52.186Z</time>
      </trkpt>
      <trkpt lat="33.009636" lon="35.153764">
        <ele>76.563146</ele>
        <time>2022-10-25T13:11:54.482Z</time>
      </trkpt>
      <trkpt lat="33.009762" lon="35.153691">
        <ele>76.455656</ele>
        <time>2022-10-25T13:11:58.563Z</time>
      </trkpt>
      <trkpt lat="33.009840" lon="35.153556">
        <ele>76.350165</ele>
        <time>2022-10-25T13:12:02.664Z</time>
      </trkpt>
      <trkpt lat="33.009935" lon="35.153491">
        <ele>76.384317</ele>
        <time>2022-10-25T13:12:05.903Z</time>
      </trkpt>
      <trkpt lat="33.010630" lon="35.153589">
        <ele>76.963738</ele>
        <time>2022-10-25T13:12:27.657Z</time>
      </trkpt>
      <trkpt lat="33.010677" lon="35.153696">
        <ele>77.047600</ele>
        <time>2022-10-25T13:12:31.324Z</time>
      </trkpt>
      <trkpt lat="33.010804" lon="35.153989">
        <ele>77.276591</ele>
        <time>2022-10-25T13:12:42.215Z</time>
      </trkpt>
      <trkpt lat="33.011071" lon="35.154289">
        <ele>77.580315</ele>
        <time>2022-10-25T13:12:56.456Z</time>
      </trkpt>
      <trkpt lat="33.011010" lon="35.154557">
        <ele>77.773113</ele>
        <time>2022-10-25T13:13:05.792Z</time>
      </trkpt>
      <trkpt lat="33.010914" lon="35.154703">
        <ele>78.125462</ele>
        <time>2022-10-25T13:13:12.750Z</time>
      </trkpt>
      <trkpt lat="33.010838" lon="35.155227">
        <ele>79.413770</ele>
        <time>2022-10-25T13:13:33.856Z</time>
      </trkpt>
      <trkpt lat="33.010982" lon="35.155358">
        <ele>79.937021</ele>
        <time>2022-10-25T13:13:42.237Z</time>
      </trkpt>
      <trkpt lat="33.011319" lon="35.155495">
        <ele>80.965637</ele>
        <time>2022-10-25T13:13:58.916Z</time>
      </trkpt>
      <trkpt lat="33.011466" lon="35.155712">
        <ele>81.641453</ele>
        <time>2022-10-25T13:14:10.359Z</time>
      </trkpt>
      <trkpt lat="33.011520" lon="35.155894">
        <ele>82.109155</ele>
        <time>2022-10-25T13:14:18.122Z</time>
      </trkpt>
      <trkpt lat="33.011440" lon="35.156072">
        <ele>82.598412</ele>
        <time>2022-10-25T13:14:27.018Z</time>
      </trkpt>
      <trkpt lat="33.011384" lon="35.156099">
        <ele>82.772920</ele>
        <time>2022-10-25T13:14:29.906Z</time>
      </trkpt>
      <trkpt lat="33.011290" lon="35.156046">
        <ele>83.049364</ele>
        <time>2022-10-25T13:14:34.923Z</time>
      </trkpt>
      <trkpt lat="33.011154" lon="35.156339">
        <ele>83.561193</ele>
        <time>2022-10-25T13:14:47.904Z</time>
      </trkpt>
      <trkpt lat="33.011082" lon="35.156391">
        <ele>83.714609</ele>
        <time>2022-10-25T13:14:51.450Z</time>
      </trkpt>
      <trkpt lat="33.010904" lon="35.156033">
        <ele>84.350707</ele>
        <time>2022-10-25T13:15:05.415Z</time>
      </trkpt>
      <trkpt lat="33.010519" lon="35.155988">
        <ele>85.055761</ele>
        <time>2022-10-25T13:15:20.989Z</time>
      </trkpt>
      <trkpt lat="33.010326" lon="35.156022">
        <ele>85.411336</ele>
        <time>2022-10-25T13:15:29.393Z</time>
      </trkpt>
      <trkpt lat="33.009964" lon="35.156086">
        <ele>86.078321</ele>
        <time>2022-10-25T13:15:41.920Z</time>
      </trkpt>
      <trkpt lat="33.009736" lon="35.156331">
        <ele>86.694990</ele>
        <time>2022-10-25T13:15:52.868Z</time>
      </trkpt>
      <trkpt lat="33.009468" lon="35.156738">
        <ele>87.614977</ele>
        <time>2022-10-25T13:16:09.055Z</time>
      </trkpt>
      <trkpt lat="33.009426" lon="35.156963">
        <ele>88.024778</ele>
        <time>2022-10-25T13:16:16.752Z</time>
      </trkpt>
      <trkpt lat="33.009182" lon="35.157187">
        <ele>88.677602</ele>
        <time>2022-10-25T13:16:29.730Z</time>
      </trkpt>
      <trkpt lat="33.009016" lon="35.157468">
        <ele>89.288686</ele>
        <time>2022-10-25T13:16:42.668Z</time>
      </trkpt>
      <trkpt lat="33.009113" lon="35.157668">
        <ele>89.699437</ele>
        <time>2022-10-25T13:16:51.820Z</time>
      </trkpt>
      <trkpt lat="33.009085" lon="35.158116">
        <ele>90.892799</ele>
        <time>2022-10-25T13:17:10.794Z</time>
      </trkpt>
      <trkpt lat="33.009186" lon="35.158554">
        <ele>92.500620</ele>
        <time>2022-10-25T13:17:30.789Z</time>
      </trkpt>
      <trkpt lat="33.009185" lon="35.159495">
        <ele>95.831240</ele>
        <time>2022-10-25T13:18:13.407Z</time>
      </trkpt>
      <trkpt lat="33.009145" lon="35.159884">
        <ele>97.218396</ele>
        <time>2022-10-25T13:18:31.328Z</time>
      </trkpt>
      <trkpt lat="33.009314" lon="35.160431">
        <ele>99.294826</ele>
        <time>2022-10-25T13:18:58.147Z</time>
      </trkpt>
      <trkpt lat="33.009298" lon="35.160751">
        <ele>100.438828</ele>
        <time>2022-10-25T13:19:12.608Z</time>
      </trkpt>
      <trkpt lat="33.009147" lon="35.161213">
        <ele>102.208357</ele>
        <time>2022-10-25T13:19:34.465Z</time>
      </trkpt>
      <trkpt lat="33.009155" lon="35.161422">
        <ele>102.954987</ele>
        <time>2022-10-25T13:19:43.907Z</time>
      </trkpt>
      <trkpt lat="33.009027" lon="35.162207">
        <ele>105.840711</ele>
        <time>2022-10-25T13:20:18.495Z</time>
      </trkpt>
      <trkpt lat="33.009171" lon="35.162849">
        <ele>108.375401</ele>
        <time>2022-10-25T13:20:47.658Z</time>
      </trkpt>
      <trkpt lat="33.009232" lon="35.163120">
        <ele>109.445592</ele>
        <time>2022-10-25T13:21:00.658Z</time>
      </trkpt>
      <trkpt lat="33.009265" lon="35.163918">
        <ele>112.492890</ele>
        <time>2022-10-25T13:21:37.219Z</time>
      </trkpt>
      <trkpt lat="33.009129" lon="35.164274">
        <ele>114.217614</ele>
        <time>2022-10-25T13:21:54.715Z</time>
      </trkpt>
      <trkpt lat="33.008630" lon="35.164763">
        <ele>118.645390</ele>
        <time>2022-10-25T13:22:36.300Z</time>
      </trkpt>
      <trkpt lat="33.008563" lon="35.164975">
        <ele>119.947835</ele>
        <time>2022-10-25T13:22:49.458Z</time>
      </trkpt>
      <trkpt lat="33.008560" lon="35.165209">
        <ele>121.293236</ele>
        <time>2022-10-25T13:23:03.104Z</time>
      </trkpt>
      <trkpt lat="33.008714" lon="35.165617">
        <ele>123.865432</ele>
        <time>2022-10-25T13:23:29.468Z</time>
      </trkpt>
      <trkpt lat="33.008698" lon="35.165831">
        <ele>125.100575</ele>
        <time>2022-10-25T13:23:43.162Z</time>
      </trkpt>
      <trkpt lat="33.008471" lon="35.166013">
        <ele>126.991736</ele>
        <time>2022-10-25T13:24:00.449Z</time>
      </trkpt>
      <trkpt lat="33.008396" lon="35.166080">
        <ele>127.643319</ele>
        <time>2022-10-25T13:24:09.059Z</time>
      </trkpt>
      <trkpt lat="33.008404" lon="35.166476">
        <ele>129.952984</ele>
        <time>2022-10-25T13:24:31.481Z</time>
      </trkpt>
      <trkpt lat="33.008322" lon="35.166714">
        <ele>131.453273</ele>
        <time>2022-10-25T13:24:45.979Z</time>
      </trkpt>
      <trkpt lat="33.008247" lon="35.166527">
        <ele>132.661920</ele>
        <time>2022-10-25T13:24:59.238Z</time>
      </trkpt>
      <trkpt lat="33.008066" lon="35.166464">
        <ele>133.972945</ele>
        <time>2022-10-25T13:25:10.993Z</time>
      </trkpt>
      <trkpt lat="33.007961" lon="35.166643">
        <ele>135.246661</ele>
        <time>2022-10-25T13:25:24.661Z</time>
      </trkpt>
      <trkpt lat="33.007907" lon="35.166856">
        <ele>136.544141</ele>
        <time>2022-10-25T13:25:36.119Z</time>
      </trkpt>
      <trkpt lat="33.007777" lon="35.167001">
        <ele>137.781824</ele>
        <time>2022-10-25T13:25:49.132Z</time>
      </trkpt>
      <trkpt lat="33.007582" lon="35.167018">
        <ele>138.899779</ele>
        <time>2022-10-25T13:25:59.045Z</time>
      </trkpt>
      <trkpt lat="33.007547" lon="35.167104">
        <ele>139.284219</ele>
        <time>2022-10-25T13:26:02.751Z</time>
      </trkpt>
      <trkpt lat="33.007421" lon="35.167107">
        <ele>139.888597</ele>
        <time>2022-10-25T13:26:08.725Z</time>
      </trkpt>
      <trkpt lat="33.007166" lon="35.167271">
        <ele>141.278020</ele>
        <time>2022-10-25T13:26:23.157Z</time>
      </trkpt>
      <trkpt lat="33.007025" lon="35.167205">
        <ele>142.004443</ele>
        <time>2022-10-25T13:26:31.702Z</time>
      </trkpt>
      <trkpt lat="33.006920" lon="35.167011">
        <ele>142.933035</ele>
        <time>2022-10-25T13:26:41.651Z</time>
      </trkpt>
      <trkpt lat="33.006801" lon="35.166930">
        <ele>143.590151</ele>
        <time>2022-10-25T13:26:49.409Z</time>
      </trkpt>
      <trkpt lat="33.006778" lon="35.166964">
        <ele>143.765831</ele>
        <time>2022-10-25T13:26:51.720Z</time>
      </trkpt>
      <trkpt lat="33.006656" lon="35.167152">
        <ele>144.721847</ele>
        <time>2022-10-25T13:27:02.279Z</time>
      </trkpt>
      <trkpt lat="33.006500" lon="35.167107">
        <ele>145.491553</ele>
        <time>2022-10-25T13:27:12.080Z</time>
      </trkpt>
      <trkpt lat="33.006431" lon="35.167001">
        <ele>146.031210</ele>
        <time>2022-10-25T13:27:18.263Z</time>
      </trkpt>
      <trkpt lat="33.006324" lon="35.166993">
        <ele>146.545356</ele>
        <time>2022-10-25T13:27:24.132Z</time>
      </trkpt>
      <trkpt lat="33.006256" lon="35.167054">
        <ele>146.953437</ele>
        <time>2022-10-25T13:27:28.999Z</time>
      </trkpt>
      <trkpt lat="33.006385" lon="35.167305">
        <ele>148.374312</ele>
        <time>2022-10-25T13:27:43.315Z</time>
      </trkpt>
      <trkpt lat="33.006342" lon="35.167501">
        <ele>149.357152</ele>
        <time>2022-10-25T13:27:53.839Z</time>
      </trkpt>
      <trkpt lat="33.005895" lon="35.168382">
        <ele>154.352460</ele>
        <time>2022-10-25T13:28:46.330Z</time>
      </trkpt>
      <trkpt lat="33.005773" lon="35.168730">
        <ele>156.182278</ele>
        <time>2022-10-25T13:29:06.464Z</time>
      </trkpt>
      <trkpt lat="33.005744" lon="35.168952">
        <ele>157.272246</ele>
        <time>2022-10-25T13:29:19.150Z</time>
      </trkpt>
      <trkpt lat="33.005572" lon="35.169101">
        <ele>158.294079</ele>
        <time>2022-10-25T13:29:32.358Z</time>
      </trkpt>
      <trkpt lat="33.005607" lon="35.169524">
        <ele>159.969214</ele>
        <time>2022-10-25T13:29:53.293Z</time>
      </trkpt>
      <trkpt lat="33.005540" lon="35.169629">
        <ele>160.489186</ele>
        <time>2022-10-25T13:29:59.901Z</time>
      </trkpt>
      <trkpt lat="33.005765" lon="35.169982">
        <ele>162.236576</ele>
        <time>2022-10-25T13:30:20.301Z</time>
      </trkpt>
      <trkpt lat="33.005841" lon="35.170289">
        <ele>163.498072</ele>
        <time>2022-10-25T13:30:34.135Z</time>
      </trkpt>
      <trkpt lat="33.006134" lon="35.170706">
        <ele>165.642049</ele>
        <time>2022-10-25T13:30:56.604Z</time>
      </trkpt>
      <trkpt lat="33.007093" lon="35.171047">
        <ele>169.651083</ele>
        <time>2022-10-25T13:31:46.837Z</time>
      </trkpt>
      <trkpt lat="33.007173" lon="35.171270">
        <ele>170.459538</ele>
        <time>2022-10-25T13:31:58.910Z</time>
      </trkpt>
      <trkpt lat="33.007647" lon="35.171040">
        <ele>172.493540</ele>
        <time>2022-10-25T13:32:24.560Z</time>
      </trkpt>
      <trkpt lat="33.007704" lon="35.171027">
        <ele>172.724203</ele>
        <time>2022-10-25T13:32:26.864Z</time>
      </trkpt>
      <trkpt lat="33.007741" lon="35.171082">
        <ele>172.959224</ele>
        <time>2022-10-25T13:32:30.743Z</time>
      </trkpt>
      <trkpt lat="33.007621" lon="35.171483">
        <ele>174.341677</ele>
        <time>2022-10-25T13:32:49.917Z</time>
      </trkpt>
      <trkpt lat="33.007676" lon="35.171602">
        <ele>174.782561</ele>
        <time>2022-10-25T13:32:56.716Z</time>
      </trkpt>
      <trkpt lat="33.007739" lon="35.171610">
        <ele>175.027702</ele>
        <time>2022-10-25T13:32:59.366Z</time>
      </trkpt>
      <trkpt lat="33.007911" lon="35.171426">
        <ele>175.921765</ele>
        <time>2022-10-25T13:33:12.928Z</time>
      </trkpt>
      <trkpt lat="33.007942" lon="35.171448">
        <ele>176.061346</ele>
        <time>2022-10-25T13:33:15.190Z</time>
      </trkpt>
      <trkpt lat="33.007926" lon="35.171678">
        <ele>176.810196</ele>
        <time>2022-10-25T13:33:25.307Z</time>
      </trkpt>
      <trkpt lat="33.008063" lon="35.171891">
        <ele>177.681200</ele>
        <time>2022-10-25T13:33:36.726Z</time>
      </trkpt>
      <trkpt lat="33.008236" lon="35.172324">
        <ele>179.237474</ele>
        <time>2022-10-25T13:33:56.776Z</time>
      </trkpt>
      <trkpt lat="33.008240" lon="35.172351">
        <ele>179.326438</ele>
        <time>2022-10-25T13:33:58.910Z</time>
      </trkpt>
      <trkpt lat="33.008280" lon="35.172634">
        <ele>180.036349</ele>
        <time>2022-10-25T13:34:09.390Z</time>
      </trkpt>
      <trkpt lat="33.008579" lon="35.172797">
        <ele>180.379905</ele>
        <time>2022-10-25T13:34:22.491Z</time>
      </trkpt>
      <trkpt lat="33.008743" lon="35.172638">
        <ele>180.600778</ele>
        <time>2022-10-25T13:34:31.322Z</time>
      </trkpt>
      <trkpt lat="33.008848" lon="35.172375">
        <ele>180.856036</ele>
        <time>2022-10-25T13:34:39.009Z</time>
      </trkpt>
      <trkpt lat="33.008650" lon="35.171871">
        <ele>181.343765</ele>
        <time>2022-10-25T13:34:57.513Z</time>
      </trkpt>
      <trkpt lat="33.008705" lon="35.171763">
        <ele>181.454492</ele>
        <time>2022-10-25T13:35:00.869Z</time>
      </trkpt>
      <trkpt lat="33.008677" lon="35.171641">
        <ele>181.565335</ele>
        <time>2022-10-25T13:35:04.148Z</time>
      </trkpt>
      <trkpt lat="33.008560" lon="35.171480">
        <ele>181.752028</ele>
        <time>2022-10-25T13:35:10.065Z</time>
      </trkpt>
      <trkpt lat="33.008573" lon="35.171351">
        <ele>181.760139</ele>
        <time>2022-10-25T13:35:13.206Z</time>
      </trkpt>
      <trkpt lat="33.008668" lon="35.171222">
        <ele>181.411017</ele>
        <time>2022-10-25T13:35:17.425Z</time>
      </trkpt>
      <trkpt lat="33.008781" lon="35.171163">
        <ele>181.111881</ele>
        <time>2022-10-25T13:35:21.100Z</time>
      </trkpt>
      <trkpt lat="33.008872" lon="35.171303">
        <ele>180.751676</ele>
        <time>2022-10-25T13:35:25.143Z</time>
      </trkpt>
      <trkpt lat="33.009334" lon="35.171533">
        <ele>179.537633</ele>
        <time>2022-10-25T13:35:39.559Z</time>
      </trkpt>
      <trkpt lat="33.009500" lon="35.171914">
        <ele>178.664526</ele>
        <time>2022-10-25T13:35:49.360Z</time>
      </trkpt>
      <trkpt lat="33.009626" lon="35.172111">
        <ele>178.160699</ele>
        <time>2022-10-25T13:35:54.763Z</time>
      </trkpt>
      <trkpt lat="33.009676" lon="35.172188">
        <ele>177.962662</ele>
        <time>2022-10-25T13:35:56.869Z</time>
      </trkpt>
      <trkpt lat="33.010000" lon="35.172987">
        <ele>173.168205</ele>
        <time>2022-10-25T13:36:14.080Z</time>
      </trkpt>
      <trkpt lat="33.010129" lon="35.173307">
        <ele>170.804083</ele>
        <time>2022-10-25T13:36:20.771Z</time>
      </trkpt>
      <trkpt lat="33.010693" lon="35.173611">
        <ele>165.889594</ele>
        <time>2022-10-25T13:36:34.400Z</time>
      </trkpt>
      <trkpt lat="33.010801" lon="35.173624">
        <ele>165.027694</ele>
        <time>2022-10-25T13:36:36.650Z</time>
      </trkpt>
      <trkpt lat="33.011021" lon="35.173553">
        <ele>163.218010</ele>
        <time>2022-10-25T13:36:41.592Z</time>
      </trkpt>
      <trkpt lat="33.011367" lon="35.173248">
        <ele>159.657653</ele>
        <time>2022-10-25T13:36:50.720Z</time>
      </trkpt>
      <trkpt lat="33.011812" lon="35.173008">
        <ele>155.615006</ele>
        <time>2022-10-25T13:37:01.164Z</time>
      </trkpt>
      <trkpt lat="33.012656" lon="35.172782">
        <ele>148.454898</ele>
        <time>2022-10-25T13:37:20.809Z</time>
      </trkpt>
      <trkpt lat="33.013036" lon="35.172901">
        <ele>147.661498</ele>
        <time>2022-10-25T13:37:30.553Z</time>
      </trkpt>
      <trkpt lat="33.013544" lon="35.172778">
        <ele>146.774026</ele>
        <time>2022-10-25T13:37:44.527Z</time>
      </trkpt>
      <trkpt lat="33.013657" lon="35.172965">
        <ele>146.443118</ele>
        <time>2022-10-25T13:37:49.765Z</time>
      </trkpt>
      <trkpt lat="33.013593" lon="35.173559">
        <ele>145.583342</ele>
        <time>2022-10-25T13:38:05.598Z</time>
      </trkpt>
      <trkpt lat="33.013569" lon="35.173782">
        <ele>145.260570</ele>
        <time>2022-10-25T13:38:13.442Z</time>
      </trkpt>
      <trkpt lat="33.013489" lon="35.174140">
        <ele>146.128546</ele>
        <time>2022-10-25T13:38:27.569Z</time>
      </trkpt>
      <trkpt lat="33.013544" lon="35.174363">
        <ele>146.739358</ele>
        <time>2022-10-25T13:38:36.655Z</time>
      </trkpt>
      <trkpt lat="33.013797" lon="35.174158">
        <ele>147.697883</ele>
        <time>2022-10-25T13:38:47.465Z</time>
      </trkpt>
      <trkpt lat="33.013842" lon="35.174369">
        <ele>148.269990</ele>
        <time>2022-10-25T13:38:57.142Z</time>
      </trkpt>
      <trkpt lat="33.013941" lon="35.175224">
        <ele>150.538033</ele>
        <time>2022-10-25T13:39:33.450Z</time>
      </trkpt>
      <trkpt lat="33.013921" lon="35.175507">
        <ele>151.394896</ele>
        <time>2022-10-25T13:39:44.825Z</time>
      </trkpt>
      <trkpt lat="33.013845" lon="35.175595">
        <ele>151.813297</ele>
        <time>2022-10-25T13:39:49.863Z</time>
      </trkpt>
      <trkpt lat="33.013700" lon="35.175629">
        <ele>152.396982</ele>
        <time>2022-10-25T13:39:56.612Z</time>
      </trkpt>
      <trkpt lat="33.013662" lon="35.175702">
        <ele>152.681561</ele>
        <time>2022-10-25T13:40:00.205Z</time>
      </trkpt>
      <trkpt lat="33.013643" lon="35.175951">
        <ele>153.509670</ele>
        <time>2022-10-25T13:40:12.309Z</time>
      </trkpt>
      <trkpt lat="33.013608" lon="35.176414">
        <ele>155.049372</ele>
        <time>2022-10-25T13:40:34.279Z</time>
      </trkpt>
      <trkpt lat="33.013307" lon="35.177305">
        <ele>158.167345</ele>
        <time>2022-10-25T13:41:15.021Z</time>
      </trkpt>
      <trkpt lat="33.013099" lon="35.178125">
        <ele>160.329157</ele>
        <time>2022-10-25T13:41:49.553Z</time>
      </trkpt>
      <trkpt lat="33.013344" lon="35.179046">
        <ele>162.767376</ele>
        <time>2022-10-25T13:42:26.667Z</time>
      </trkpt>
      <trkpt lat="33.013466" lon="35.179251">
        <ele>163.397037</ele>
        <time>2022-10-25T13:42:35.718Z</time>
      </trkpt>
      <trkpt lat="33.013832" lon="35.179470">
        <ele>164.399466</ele>
        <time>2022-10-25T13:42:54.109Z</time>
      </trkpt>
      <trkpt lat="33.014629" lon="35.179770">
        <ele>166.445413</ele>
        <time>2022-10-25T13:43:30.153Z</time>
      </trkpt>
      <trkpt lat="33.014800" lon="35.179877">
        <ele>166.918147</ele>
        <time>2022-10-25T13:43:38.178Z</time>
      </trkpt>
      <trkpt lat="33.015028" lon="35.180148">
        <ele>167.706174</ele>
        <time>2022-10-25T13:43:52.490Z</time>
      </trkpt>
      <trkpt lat="33.015164" lon="35.180443">
        <ele>168.669515</ele>
        <time>2022-10-25T13:44:05.114Z</time>
      </trkpt>
      <trkpt lat="33.015161" lon="35.180588">
        <ele>169.098546</ele>
        <time>2022-10-25T13:44:10.379Z</time>
      </trkpt>
      <trkpt lat="33.014768" lon="35.181642">
        <ele>172.510543</ele>
        <time>2022-10-25T13:44:58.242Z</time>
      </trkpt>
      <trkpt lat="33.014630" lon="35.181875">
        <ele>173.354328</ele>
        <time>2022-10-25T13:45:10.907Z</time>
      </trkpt>
      <trkpt lat="33.014436" lon="35.182582">
        <ele>176.125067</ele>
        <time>2022-10-25T13:45:44.911Z</time>
      </trkpt>
      <trkpt lat="33.014387" lon="35.182759">
        <ele>176.896288</ele>
        <time>2022-10-25T13:45:53.642Z</time>
      </trkpt>
      <trkpt lat="33.014405" lon="35.182984">
        <ele>177.831459</ele>
        <time>2022-10-25T13:46:04.382Z</time>
      </trkpt>
      <trkpt lat="33.014403" lon="35.183308">
        <ele>179.172053</ele>
        <time>2022-10-25T13:46:20.162Z</time>
      </trkpt>
      <trkpt lat="33.014516" lon="35.183394">
        <ele>179.833488</ele>
        <time>2022-10-25T13:46:27.566Z</time>
      </trkpt>
      <trkpt lat="33.014552" lon="35.183485">
        <ele>180.249801</ele>
        <time>2022-10-25T13:46:32.474Z</time>
      </trkpt>
      <trkpt lat="33.014835" lon="35.185845">
        <ele>189.865503</ele>
        <time>2022-10-25T13:48:28.333Z</time>
      </trkpt>
      <trkpt lat="33.014525" lon="35.186859">
        <ele>192.771404</ele>
        <time>2022-10-25T13:49:12.641Z</time>
      </trkpt>
      <trkpt lat="33.014502" lon="35.186897">
        <ele>192.857903</ele>
        <time>2022-10-25T13:49:15.248Z</time>
      </trkpt>
      <trkpt lat="33.014346" lon="35.187159">
        <ele>193.450989</ele>
        <time>2022-10-25T13:49:26.428Z</time>
      </trkpt>
      <trkpt lat="33.014109" lon="35.187525">
        <ele>194.304496</ele>
        <time>2022-10-25T13:49:41.671Z</time>
      </trkpt>
      <trkpt lat="33.013730" lon="35.187923">
        <ele>195.416053</ele>
        <time>2022-10-25T13:50:01.048Z</time>
      </trkpt>
      <trkpt lat="33.013512" lon="35.188360">
        <ele>195.680390</ele>
        <time>2022-10-25T13:50:16.287Z</time>
      </trkpt>
      <trkpt lat="33.013343" lon="35.188485">
        <ele>195.762894</ele>
        <time>2022-10-25T13:50:22.446Z</time>
      </trkpt>
      <trkpt lat="33.013380" lon="35.188950">
        <ele>195.925389</ele>
        <time>2022-10-25T13:50:34.545Z</time>
      </trkpt>
      <trkpt lat="33.013880" lon="35.190190">
        <ele>196.822329</ele>
        <time>2022-10-25T13:51:13.750Z</time>
      </trkpt>
      <trkpt lat="33.014051" lon="35.190747">
        <ele>197.672597</ele>
        <time>2022-10-25T13:51:33.115Z</time>
      </trkpt>
      <trkpt lat="33.014070" lon="35.190810">
        <ele>197.768568</ele>
        <time>2022-10-25T13:51:35.772Z</time>
      </trkpt>
      <trkpt lat="33.014150" lon="35.191390">
        <ele>198.611147</ele>
        <time>2022-10-25T13:51:56.167Z</time>
      </trkpt>
      <trkpt lat="33.014180" lon="35.192120">
        <ele>199.799264</ele>
        <time>2022-10-25T13:52:23.546Z</time>
      </trkpt>
      <trkpt lat="33.014400" lon="35.193220">
        <ele>202.145133</ele>
        <time>2022-10-25T13:53:05.965Z</time>
      </trkpt>
      <trkpt lat="33.014420" lon="35.193930">
        <ele>203.618799</ele>
        <time>2022-10-25T13:53:32.392Z</time>
      </trkpt>
      <trkpt lat="33.014310" lon="35.195390">
        <ele>206.332375</ele>
        <time>2022-10-25T13:54:24.962Z</time>
      </trkpt>
      <trkpt lat="33.014362" lon="35.196248">
        <ele>207.943851</ele>
        <time>2022-10-25T13:54:54.813Z</time>
      </trkpt>
      <trkpt lat="33.014740" lon="35.196760">
        <ele>209.415068</ele>
        <time>2022-10-25T13:55:19.748Z</time>
      </trkpt>
      <trkpt lat="33.015266" lon="35.197754">
        <ele>211.949982</ele>
        <time>2022-10-25T13:56:04.351Z</time>
      </trkpt>
      <trkpt lat="33.015419" lon="35.197983">
        <ele>212.638637</ele>
        <time>2022-10-25T13:56:16.235Z</time>
      </trkpt>
      <trkpt lat="33.015573" lon="35.198581">
        <ele>214.338897</ele>
        <time>2022-10-25T13:56:40.283Z</time>
      </trkpt>
      <trkpt lat="33.015584" lon="35.198623">
        <ele>214.458489</ele>
        <time>2022-10-25T13:56:42.456Z</time>
      </trkpt>
      <trkpt lat="33.015688" lon="35.199830">
        <ele>217.756326</ele>
        <time>2022-10-25T13:57:31.033Z</time>
      </trkpt>
      <trkpt lat="33.016012" lon="35.201311">
        <ele>224.549203</ele>
        <time>2022-10-25T13:58:37.465Z</time>
      </trkpt>
      <trkpt lat="33.016066" lon="35.202622">
        <ele>231.204415</ele>
        <time>2022-10-25T13:59:58.531Z</time>
      </trkpt>
      <trkpt lat="33.015645" lon="35.203251">
        <ele>235.784735</ele>
        <time>2022-10-25T14:00:44.667Z</time>
      </trkpt>
      <trkpt lat="33.015503" lon="35.203321">
        <ele>236.827605</ele>
        <time>2022-10-25T14:00:56.249Z</time>
      </trkpt>
      <trkpt lat="33.015397" lon="35.203225">
        <ele>237.730986</ele>
        <time>2022-10-25T14:01:03.785Z</time>
      </trkpt>
      <trkpt lat="33.015096" lon="35.202515">
        <ele>240.505907</ele>
        <time>2022-10-25T14:01:44.282Z</time>
      </trkpt>
      <trkpt lat="33.014904" lon="35.200960">
        <ele>241.233157</ele>
        <time>2022-10-25T14:02:25.744Z</time>
      </trkpt>
      <trkpt lat="33.014634" lon="35.200456">
        <ele>240.130168</ele>
        <time>2022-10-25T14:02:38.537Z</time>
      </trkpt>
      <trkpt lat="33.014562" lon="35.200217">
        <ele>239.274654</ele>
        <time>2022-10-25T14:02:43.874Z</time>
      </trkpt>
      <trkpt lat="33.014546" lon="35.199595">
        <ele>237.178304</ele>
        <time>2022-10-25T14:02:57.008Z</time>
      </trkpt>
      <trkpt lat="33.014462" lon="35.199165">
        <ele>235.690951</ele>
        <time>2022-10-25T14:03:06.086Z</time>
      </trkpt>
      <trkpt lat="33.014330" lon="35.198837">
        <ele>234.465332</ele>
        <time>2022-10-25T14:03:13.223Z</time>
      </trkpt>
      <trkpt lat="33.013888" lon="35.198522">
        <ele>232.664965</ele>
        <time>2022-10-25T14:03:25.399Z</time>
      </trkpt>
      <trkpt lat="33.013649" lon="35.198496">
        <ele>231.851130</ele>
        <time>2022-10-25T14:03:31.455Z</time>
      </trkpt>
      <trkpt lat="33.013339" lon="35.198363">
        <ele>230.733931</ele>
        <time>2022-10-25T14:03:39.750Z</time>
      </trkpt>
      <trkpt lat="33.013157" lon="35.198152">
        <ele>229.873173</ele>
        <time>2022-10-25T14:03:46.035Z</time>
      </trkpt>
      <trkpt lat="33.013022" lon="35.198068">
        <ele>229.356808</ele>
        <time>2022-10-25T14:03:50.695Z</time>
      </trkpt>
      <trkpt lat="33.012864" lon="35.197843">
        <ele>228.522285</ele>
        <time>2022-10-25T14:03:57.236Z</time>
      </trkpt>
      <trkpt lat="33.012731" lon="35.197923">
        <ele>228.018393</ele>
        <time>2022-10-25T14:04:01.834Z</time>
      </trkpt>
      <trkpt lat="33.012680" lon="35.198287">
        <ele>228.569738</ele>
        <time>2022-10-25T14:04:11.239Z</time>
      </trkpt>
      <trkpt lat="33.012382" lon="35.198851">
        <ele>229.565657</ele>
        <time>2022-10-25T14:04:28.604Z</time>
      </trkpt>
      <trkpt lat="33.012342" lon="35.199084">
        <ele>229.920974</ele>
        <time>2022-10-25T14:04:39.362Z</time>
      </trkpt>
      <trkpt lat="33.012095" lon="35.199708">
        <ele>230.951862</ele>
        <time>2022-10-25T14:05:08.800Z</time>
      </trkpt>
      <trkpt lat="33.012088" lon="35.199726">
        <ele>230.981504</ele>
        <time>2022-10-25T14:05:10.199Z</time>
      </trkpt>
      <trkpt lat="33.011912" lon="35.200102">
        <ele>232.409597</ele>
        <time>2022-10-25T14:05:28.452Z</time>
      </trkpt>
      <trkpt lat="33.011508" lon="35.200672">
        <ele>235.699212</ele>
        <time>2022-10-25T14:06:02.757Z</time>
      </trkpt>
      <trkpt lat="33.011270" lon="35.201240">
        <ele>238.497955</ele>
        <time>2022-10-25T14:06:36.640Z</time>
      </trkpt>
      <trkpt lat="33.010945" lon="35.201546">
        <ele>240.674523</ele>
        <time>2022-10-25T14:07:01.935Z</time>
      </trkpt>
      <trkpt lat="33.010840" lon="35.201485">
        <ele>241.398915</ele>
        <time>2022-10-25T14:07:08.421Z</time>
      </trkpt>
      <trkpt lat="33.010735" lon="35.201497">
        <ele>242.053470</ele>
        <time>2022-10-25T14:07:15.911Z</time>
      </trkpt>
      <trkpt lat="33.010368" lon="35.201878">
        <ele>245.072941</ele>
        <time>2022-10-25T14:07:45.002Z</time>
      </trkpt>
      <trkpt lat="33.010218" lon="35.202239">
        <ele>247.169438</ele>
        <time>2022-10-25T14:08:05.782Z</time>
      </trkpt>
      <trkpt lat="33.009932" lon="35.202683">
        <ele>250.082838</ele>
        <time>2022-10-25T14:08:35.918Z</time>
      </trkpt>
      <trkpt lat="33.009565" lon="35.203484">
        <ele>254.761472</ele>
        <time>2022-10-25T14:09:26.910Z</time>
      </trkpt>
      <trkpt lat="33.009515" lon="35.203860">
        <ele>256.695471</ele>
        <time>2022-10-25T14:09:46.236Z</time>
      </trkpt>
      <trkpt lat="33.009306" lon="35.204478">
        <ele>260.080692</ele>
        <time>2022-10-25T14:10:23.583Z</time>
      </trkpt>
      <trkpt lat="33.009326" lon="35.204910">
        <ele>262.278659</ele>
        <time>2022-10-25T14:10:45.106Z</time>
      </trkpt>
      <trkpt lat="33.009357" lon="35.205562">
        <ele>264.057561</ele>
        <time>2022-10-25T14:11:12.114Z</time>
      </trkpt>
      <trkpt lat="33.009452" lon="35.206045">
        <ele>265.222906</ele>
        <time>2022-10-25T14:11:32.983Z</time>
      </trkpt>
      <trkpt lat="33.009902" lon="35.206524">
        <ele>266.912540</ele>
        <time>2022-10-25T14:11:58.034Z</time>
      </trkpt>
      <trkpt lat="33.010254" lon="35.206898">
        <ele>268.083023</ele>
        <time>2022-10-25T14:12:15.079Z</time>
      </trkpt>
      <trkpt lat="33.010178" lon="35.207228">
        <ele>268.624951</ele>
        <time>2022-10-25T14:12:25.736Z</time>
      </trkpt>
      <trkpt lat="33.010343" lon="35.207383">
        <ele>269.021606</ele>
        <time>2022-10-25T14:12:33.643Z</time>
      </trkpt>
      <trkpt lat="33.010906" lon="35.207307">
        <ele>270.091571</ele>
        <time>2022-10-25T14:12:53.810Z</time>
      </trkpt>
      <trkpt lat="33.011187" lon="35.207509">
        <ele>270.711172</ele>
        <time>2022-10-25T14:13:09.321Z</time>
      </trkpt>
      <trkpt lat="33.011562" lon="35.207908">
        <ele>272.347236</ele>
        <time>2022-10-25T14:13:33.476Z</time>
      </trkpt>
      <trkpt lat="33.011576" lon="35.207914">
        <ele>272.414621</ele>
        <time>2022-10-25T14:13:35.668Z</time>
      </trkpt>
      <trkpt lat="33.012614" lon="35.208353">
        <ele>277.403268</ele>
        <time>2022-10-25T14:14:36.355Z</time>
      </trkpt>
      <trkpt lat="33.013651" lon="35.209730">
        <ele>284.658297</ele>
        <time>2022-10-25T14:16:04.444Z</time>
      </trkpt>
      <trkpt lat="33.013792" lon="35.210035">
        <ele>286.039366</ele>
        <time>2022-10-25T14:16:20.349Z</time>
      </trkpt>
      <trkpt lat="33.013718" lon="35.210056">
        <ele>286.399078</ele>
        <time>2022-10-25T14:16:24.470Z</time>
      </trkpt>
      <trkpt lat="33.014215" lon="35.210787">
        <ele>289.897342</ele>
        <time>2022-10-25T14:17:06.201Z</time>
      </trkpt>
      <trkpt lat="33.014305" lon="35.211271">
        <ele>291.664392</ele>
        <time>2022-10-25T14:17:28.010Z</time>
      </trkpt>
      <trkpt lat="33.014269" lon="35.211786">
        <ele>293.506394</ele>
        <time>2022-10-25T14:17:51.001Z</time>
      </trkpt>
      <trkpt lat="33.013837" lon="35.213417">
        <ele>299.385044</ele>
        <time>2022-10-25T14:19:06.951Z</time>
      </trkpt>
      <trkpt lat="33.013891" lon="35.213504">
        <ele>299.750523</ele>
        <time>2022-10-25T14:19:11.579Z</time>
      </trkpt>
      <trkpt lat="33.013857" lon="35.213625">
        <ele>300.181412</ele>
        <time>2022-10-25T14:19:17.384Z</time>
      </trkpt>
      <trkpt lat="33.013598" lon="35.213909">
        <ele>301.598181</ele>
        <time>2022-10-25T14:19:35.557Z</time>
      </trkpt>
      <trkpt lat="33.013504" lon="35.214304">
        <ele>302.993748</ele>
        <time>2022-10-25T14:19:52.441Z</time>
      </trkpt>
      <trkpt lat="33.013108" lon="35.215318">
        <ele>306.896611</ele>
        <time>2022-10-25T14:20:38.972Z</time>
      </trkpt>
      <trkpt lat="33.013076" lon="35.215226">
        <ele>307.244132</ele>
        <time>2022-10-25T14:20:43.439Z</time>
      </trkpt>
      <trkpt lat="33.013101" lon="35.215074">
        <ele>307.784586</ele>
        <time>2022-10-25T14:20:50.339Z</time>
      </trkpt>
      <trkpt lat="33.013063" lon="35.214998">
        <ele>308.093323</ele>
        <time>2022-10-25T14:20:54.550Z</time>
      </trkpt>
      <trkpt lat="33.012896" lon="35.215409">
        <ele>309.686848</ele>
        <time>2022-10-25T14:21:16.053Z</time>
      </trkpt>
      <trkpt lat="33.012523" lon="35.215851">
        <ele>312.181454</ele>
        <time>2022-10-25T14:21:46.143Z</time>
      </trkpt>
      <trkpt lat="33.012389" lon="35.216172">
        <ele>313.660818</ele>
        <time>2022-10-25T14:22:04.121Z</time>
      </trkpt>
      <trkpt lat="33.012086" lon="35.216781">
        <ele>316.582323</ele>
        <time>2022-10-25T14:22:38.822Z</time>
      </trkpt>
      <trkpt lat="33.012060" lon="35.216832">
        <ele>316.828566</ele>
        <time>2022-10-25T14:22:43.049Z</time>
      </trkpt>
      <trkpt lat="33.012026" lon="35.217278">
        <ele>318.676209</ele>
        <time>2022-10-25T14:23:03.348Z</time>
      </trkpt>
      <trkpt lat="33.011943" lon="35.217620">
        <ele>319.603715</ele>
        <time>2022-10-25T14:23:17.740Z</time>
      </trkpt>
      <trkpt lat="33.011550" lon="35.218468">
        <ele>321.637128</ele>
        <time>2022-10-25T14:23:54.761Z</time>
      </trkpt>
      <trkpt lat="33.011727" lon="35.218389">
        <ele>322.110125</ele>
        <time>2022-10-25T14:24:00.532Z</time>
      </trkpt>
      <trkpt lat="33.012141" lon="35.217992">
        <ele>323.439704</ele>
        <time>2022-10-25T14:24:23.609Z</time>
      </trkpt>
      <trkpt lat="33.012421" lon="35.217430">
        <ele>325.287968</ele>
        <time>2022-10-25T14:24:44.322Z</time>
      </trkpt>
      <trkpt lat="33.012528" lon="35.217361">
        <ele>325.706869</ele>
        <time>2022-10-25T14:24:51.065Z</time>
      </trkpt>
      <trkpt lat="33.012486" lon="35.217567">
        <ele>326.319074</ele>
        <time>2022-10-25T14:24:58.208Z</time>
      </trkpt>
      <trkpt lat="33.012576" lon="35.217811">
        <ele>327.088836</ele>
        <time>2022-10-25T14:25:09.698Z</time>
      </trkpt>
      <trkpt lat="33.012863" lon="35.217917">
        <ele>328.123500</ele>
        <time>2022-10-25T14:25:26.140Z</time>
      </trkpt>
      <trkpt lat="33.012900" lon="35.217971">
        <ele>328.324874</ele>
        <time>2022-10-25T14:25:29.543Z</time>
      </trkpt>
      <trkpt lat="33.012974" lon="35.218078">
        <ele>328.725391</ele>
        <time>2022-10-25T14:25:35.705Z</time>
      </trkpt>
      <trkpt lat="33.013017" lon="35.218490">
        <ele>330.031695</ele>
        <time>2022-10-25T14:25:55.254Z</time>
      </trkpt>
      <trkpt lat="33.013193" lon="35.218792">
        <ele>331.708342</ele>
        <time>2022-10-25T14:26:13.089Z</time>
      </trkpt>
      <trkpt lat="33.013235" lon="35.218956">
        <ele>332.490096</ele>
        <time>2022-10-25T14:26:21.115Z</time>
      </trkpt>
      <trkpt lat="33.013433" lon="35.219252">
        <ele>334.216295</ele>
        <time>2022-10-25T14:26:40.539Z</time>
      </trkpt>
      <trkpt lat="33.013615" lon="35.220073">
        <ele>338.087737</ele>
        <time>2022-10-25T14:27:25.391Z</time>
      </trkpt>
      <trkpt lat="33.013645" lon="35.220123">
        <ele>338.368024</ele>
        <time>2022-10-25T14:27:28.500Z</time>
      </trkpt>
      <trkpt lat="33.013766" lon="35.220137">
        <ele>339.028954</ele>
        <time>2022-10-25T14:27:36.151Z</time>
      </trkpt>
      <trkpt lat="33.014020" lon="35.220020">
        <ele>340.067489</ele>
        <time>2022-10-25T14:27:51.108Z</time>
      </trkpt>
      <trkpt lat="33.014086" lon="35.220530">
        <ele>341.372103</ele>
        <time>2022-10-25T14:28:13.086Z</time>
      </trkpt>
      <trkpt lat="33.014001" lon="35.220734">
        <ele>341.948005</ele>
        <time>2022-10-25T14:28:21.975Z</time>
      </trkpt>
      <trkpt lat="33.013929" lon="35.220780">
        <ele>342.194269</ele>
        <time>2022-10-25T14:28:25.490Z</time>
      </trkpt>
      <trkpt lat="33.013807" lon="35.220734">
        <ele>342.580038</ele>
        <time>2022-10-25T14:28:31.380Z</time>
      </trkpt>
      <trkpt lat="33.013509" lon="35.220506">
        <ele>343.647500</ele>
        <time>2022-10-25T14:28:46.568Z</time>
      </trkpt>
      <trkpt lat="33.013279" lon="35.220405">
        <ele>344.386454</ele>
        <time>2022-10-25T14:28:56.668Z</time>
      </trkpt>
      <trkpt lat="33.012984" lon="35.220022">
        <ele>345.358931</ele>
        <time>2022-10-25T14:29:14.827Z</time>
      </trkpt>
      <trkpt lat="33.012769" lon="35.219977">
        <ele>345.721021</ele>
        <time>2022-10-25T14:29:22.487Z</time>
      </trkpt>
      <trkpt lat="33.012600" lon="35.219832">
        <ele>346.066371</ele>
        <time>2022-10-25T14:29:29.058Z</time>
      </trkpt>
      <trkpt lat="33.012467" lon="35.219883">
        <ele>346.298114</ele>
        <time>2022-10-25T14:29:33.521Z</time>
      </trkpt>
      <trkpt lat="33.012482" lon="35.220035">
        <ele>346.511002</ele>
        <time>2022-10-25T14:29:37.563Z</time>
      </trkpt>
      <trkpt lat="33.012727" lon="35.220379">
        <ele>347.138792</ele>
        <time>2022-10-25T14:29:51.661Z</time>
      </trkpt>
      <trkpt lat="33.012463" lon="35.220481">
        <ele>347.599121</ele>
        <time>2022-10-25T14:30:03.401Z</time>
      </trkpt>
      <trkpt lat="33.012358" lon="35.220622">
        <ele>347.861423</ele>
        <time>2022-10-25T14:30:10.693Z</time>
      </trkpt>
      <trkpt lat="33.012357" lon="35.220642">
        <ele>347.889292</ele>
        <time>2022-10-25T14:30:11.698Z</time>
      </trkpt>
      <trkpt lat="33.012330" lon="35.220993">
        <ele>349.586292</ele>
        <time>2022-10-25T14:30:26.597Z</time>
      </trkpt>
      <trkpt lat="33.012230" lon="35.221311">
        <ele>351.309501</ele>
        <time>2022-10-25T14:30:43.042Z</time>
      </trkpt>
      <trkpt lat="33.012271" lon="35.221812">
        <ele>353.863579</ele>
        <time>2022-10-25T14:31:10.460Z</time>
      </trkpt>
      <trkpt lat="33.011908" lon="35.222363">
        <ele>357.418880</ele>
        <time>2022-10-25T14:31:49.848Z</time>
      </trkpt>
      <trkpt lat="33.011846" lon="35.223118">
        <ele>361.584433</ele>
        <time>2022-10-25T14:32:36.168Z</time>
      </trkpt>
      <trkpt lat="33.011617" lon="35.223673">
        <ele>365.126422</ele>
        <time>2022-10-25T14:33:12.755Z</time>
      </trkpt>
      <trkpt lat="33.011516" lon="35.223864">
        <ele>366.419451</ele>
        <time>2022-10-25T14:33:25.065Z</time>
      </trkpt>
      <trkpt lat="33.011335" lon="35.224015">
        <ele>367.927879</ele>
        <time>2022-10-25T14:33:39.392Z</time>
      </trkpt>
      <trkpt lat="33.011242" lon="35.224173">
        <ele>369.033278</ele>
        <time>2022-10-25T14:33:49.064Z</time>
      </trkpt>
      <trkpt lat="33.011179" lon="35.224122">
        <ele>369.553249</ele>
        <time>2022-10-25T14:33:53.712Z</time>
      </trkpt>
      <trkpt lat="33.011209" lon="35.223887">
        <ele>370.914441</ele>
        <time>2022-10-25T14:34:05.287Z</time>
      </trkpt>
      <trkpt lat="33.011134" lon="35.223184">
        <ele>373.982995</ele>
        <time>2022-10-25T14:34:38.024Z</time>
      </trkpt>
      <trkpt lat="33.010979" lon="35.222789">
        <ele>375.843936</ele>
        <time>2022-10-25T14:35:00.235Z</time>
      </trkpt>
      <trkpt lat="33.010875" lon="35.223599">
        <ele>379.340613</ele>
        <time>2022-10-25T14:35:43.559Z</time>
      </trkpt>
      <trkpt lat="33.010558" lon="35.225090">
        <ele>381.318199</ele>
        <time>2022-10-25T14:36:41.234Z</time>
      </trkpt>
      <trkpt lat="33.010546" lon="35.225139">
        <ele>381.359600</ele>
        <time>2022-10-25T14:36:44.490Z</time>
      </trkpt>
      <trkpt lat="33.010558" lon="35.225090">
        <ele>381.401002</ele>
        <time>2022-10-25T14:36:45.429Z</time>
      </trkpt>
      <trkpt lat="33.010875" lon="35.223599">
        <ele>378.875621</ele>
        <time>2022-10-25T14:37:19.693Z</time>
      </trkpt>
      <trkpt lat="33.010979" lon="35.222789">
        <ele>375.780505</ele>
        <time>2022-10-25T14:37:35.656Z</time>
      </trkpt>
      <trkpt lat="33.011134" lon="35.223184">
        <ele>374.133276</ele>
        <time>2022-10-25T14:37:44.265Z</time>
      </trkpt>
      <trkpt lat="33.011209" lon="35.223887">
        <ele>370.536770</ele>
        <time>2022-10-25T14:37:58.747Z</time>
      </trkpt>
      <trkpt lat="33.011179" lon="35.224122">
        <ele>369.298161</ele>
        <time>2022-10-25T14:38:03.507Z</time>
      </trkpt>
      <trkpt lat="33.011242" lon="35.224173">
        <ele>368.825017</ele>
        <time>2022-10-25T14:38:05.303Z</time>
      </trkpt>
      <trkpt lat="33.011335" lon="35.224015">
        <ele>367.819166</ele>
        <time>2022-10-25T14:38:09.136Z</time>
      </trkpt>
      <trkpt lat="33.011516" lon="35.223864">
        <ele>366.446579</ele>
        <time>2022-10-25T14:38:14.224Z</time>
      </trkpt>
      <trkpt lat="33.011617" lon="35.223673">
        <ele>365.269996</ele>
        <time>2022-10-25T14:38:18.574Z</time>
      </trkpt>
      <trkpt lat="33.011846" lon="35.223118">
        <ele>362.024330</ele>
        <time>2022-10-25T14:38:30.179Z</time>
      </trkpt>
      <trkpt lat="33.011908" lon="35.222363">
        <ele>357.935167</ele>
        <time>2022-10-25T14:38:44.309Z</time>
      </trkpt>
      <trkpt lat="33.012271" lon="35.221812">
        <ele>354.158129</ele>
        <time>2022-10-25T14:38:57.738Z</time>
      </trkpt>
      <trkpt lat="33.012230" lon="35.221311">
        <ele>351.444757</ele>
        <time>2022-10-25T14:39:07.701Z</time>
      </trkpt>
      <trkpt lat="33.012330" lon="35.220993">
        <ele>351.635023</ele>
        <time>2022-10-25T14:39:15.018Z</time>
      </trkpt>
      <trkpt lat="33.012357" lon="35.220642">
        <ele>352.248301</ele>
        <time>2022-10-25T14:39:23.555Z</time>
      </trkpt>
      <trkpt lat="33.012330" lon="35.220993">
        <ele>352.861579</ele>
        <time>2022-10-25T14:39:34.692Z</time>
      </trkpt>
      <trkpt lat="33.012230" lon="35.221311">
        <ele>353.452502</ele>
        <time>2022-10-25T14:39:48.414Z</time>
      </trkpt>
      <trkpt lat="33.012271" lon="35.221812">
        <ele>354.328347</ele>
        <time>2022-10-25T14:40:13.761Z</time>
      </trkpt>
      <trkpt lat="33.011908" lon="35.222363">
        <ele>357.213694</ele>
        <time>2022-10-25T14:40:52.730Z</time>
      </trkpt>
      <trkpt lat="33.011846" lon="35.223118">
        <ele>361.798355</ele>
        <time>2022-10-25T14:41:39.050Z</time>
      </trkpt>
      <trkpt lat="33.011617" lon="35.223673">
        <ele>365.536550</ele>
        <time>2022-10-25T14:42:15.637Z</time>
      </trkpt>
      <trkpt lat="33.011516" lon="35.223864">
        <ele>366.901204</ele>
        <time>2022-10-25T14:42:27.947Z</time>
      </trkpt>
      <trkpt lat="33.011335" lon="35.224015">
        <ele>368.372775</ele>
        <time>2022-10-25T14:42:42.274Z</time>
      </trkpt>
      <trkpt lat="33.011242" lon="35.224173">
        <ele>369.325409</ele>
        <time>2022-10-25T14:42:51.946Z</time>
      </trkpt>
      <trkpt lat="33.011179" lon="35.224122">
        <ele>369.773521</ele>
        <time>2022-10-25T14:42:56.594Z</time>
      </trkpt>
      <trkpt lat="33.011209" lon="35.223887">
        <ele>370.946598</ele>
        <time>2022-10-25T14:43:08.169Z</time>
      </trkpt>
      <trkpt lat="33.011134" lon="35.223184">
        <ele>374.443841</ele>
        <time>2022-10-25T14:43:40.906Z</time>
      </trkpt>
      <trkpt lat="33.010979" lon="35.222789">
        <ele>376.596022</ele>
        <time>2022-10-25T14:44:03.117Z</time>
      </trkpt>
      <trkpt lat="33.010875" lon="35.223599">
        <ele>381.317314</ele>
        <time>2022-10-25T14:44:49.041Z</time>
      </trkpt>
      <trkpt lat="33.010558" lon="35.225090">
        <ele>391.226268</ele>
        <time>2022-10-25T14:46:21.348Z</time>
      </trkpt>
      <trkpt lat="33.010546" lon="35.225139">
        <ele>391.555113</ele>
        <time>2022-10-25T14:46:25.951Z</time>
      </trkpt>
      <trkpt lat="33.010334" lon="35.225978">
        <ele>394.929195</ele>
        <time>2022-10-25T14:47:17.910Z</time>
      </trkpt>
      <trkpt lat="33.010187" lon="35.226343">
        <ele>396.343624</ele>
        <time>2022-10-25T14:47:38.065Z</time>
      </trkpt>
      <trkpt lat="33.010271" lon="35.226437">
        <ele>396.823475</ele>
        <time>2022-10-25T14:47:42.280Z</time>
      </trkpt>
      <trkpt lat="33.010392" lon="35.226442">
        <ele>397.327816</ele>
        <time>2022-10-25T14:47:49.792Z</time>
      </trkpt>
      <trkpt lat="33.010417" lon="35.226579">
        <ele>397.817580</ele>
        <time>2022-10-25T14:47:54.558Z</time>
      </trkpt>
      <trkpt lat="33.010184" lon="35.226782">
        <ele>399.019612</ele>
        <time>2022-10-25T14:48:04.559Z</time>
      </trkpt>
      <trkpt lat="33.009973" lon="35.226769">
        <ele>399.635082</ele>
        <time>2022-10-25T14:48:10.055Z</time>
      </trkpt>
      <trkpt lat="33.009906" lon="35.226703">
        <ele>399.427002</ele>
        <time>2022-10-25T14:48:14.867Z</time>
      </trkpt>
      <trkpt lat="33.010137" lon="35.225311">
        <ele>396.577831</ele>
        <time>2022-10-25T14:48:46.520Z</time>
      </trkpt>
      <trkpt lat="33.010123" lon="35.224957">
        <ele>395.866253</ele>
        <time>2022-10-25T14:48:54.305Z</time>
      </trkpt>
      <trkpt lat="33.010041" lon="35.224636">
        <ele>395.193682</ele>
        <time>2022-10-25T14:49:01.102Z</time>
      </trkpt>
      <trkpt lat="33.009768" lon="35.224158">
        <ele>394.038452</ele>
        <time>2022-10-25T14:49:13.217Z</time>
      </trkpt>
      <trkpt lat="33.009148" lon="35.223371">
        <ele>391.881489</ele>
        <time>2022-10-25T14:49:38.095Z</time>
      </trkpt>
      <trkpt lat="33.009005" lon="35.223020">
        <ele>391.129205</ele>
        <time>2022-10-25T14:49:47.614Z</time>
      </trkpt>
      <trkpt lat="33.008853" lon="35.222837">
        <ele>390.977537</ele>
        <time>2022-10-25T14:49:54.135Z</time>
      </trkpt>
      <trkpt lat="33.008668" lon="35.222737">
        <ele>390.834912</ele>
        <time>2022-10-25T14:49:59.851Z</time>
      </trkpt>
      <trkpt lat="33.008633" lon="35.222950">
        <ele>390.707105</ele>
        <time>2022-10-25T14:50:03.495Z</time>
      </trkpt>
      <trkpt lat="33.008094" lon="35.222871">
        <ele>390.325784</ele>
        <time>2022-10-25T14:50:19.696Z</time>
      </trkpt>
      <trkpt lat="33.007891" lon="35.222788">
        <ele>390.175096</ele>
        <time>2022-10-25T14:50:26.809Z</time>
      </trkpt>
      <trkpt lat="33.007628" lon="35.222680">
        <ele>389.979780</ele>
        <time>2022-10-25T14:50:35.497Z</time>
      </trkpt>
      <trkpt lat="33.007327" lon="35.222666">
        <ele>389.455871</ele>
        <time>2022-10-25T14:50:44.491Z</time>
      </trkpt>
      <trkpt lat="33.007043" lon="35.222785">
        <ele>388.640663</ele>
        <time>2022-10-25T14:50:53.391Z</time>
      </trkpt>
      <trkpt lat="33.006519" lon="35.223588">
        <ele>386.329939</ele>
        <time>2022-10-25T14:51:16.546Z</time>
      </trkpt>
      <trkpt lat="33.006081" lon="35.223979">
        <ele>384.689940</ele>
        <time>2022-10-25T14:51:29.666Z</time>
      </trkpt>
      <trkpt lat="33.005895" lon="35.224068">
        <ele>383.604998</ele>
        <time>2022-10-25T14:51:34.366Z</time>
      </trkpt>
      <trkpt lat="33.005816" lon="35.224299">
        <ele>382.472457</ele>
        <time>2022-10-25T14:51:39.228Z</time>
      </trkpt>
      <trkpt lat="33.005558" lon="35.224420">
        <ele>380.971647</ele>
        <time>2022-10-25T14:51:45.812Z</time>
      </trkpt>
      <trkpt lat="33.005279" lon="35.224767">
        <ele>378.789268</ele>
        <time>2022-10-25T14:51:55.352Z</time>
      </trkpt>
      <trkpt lat="33.005204" lon="35.225208">
        <ele>376.746451</ele>
        <time>2022-10-25T14:52:04.252Z</time>
      </trkpt>
      <trkpt lat="33.005269" lon="35.226147">
        <ele>373.073903</ele>
        <time>2022-10-25T14:52:23.202Z</time>
      </trkpt>
      <trkpt lat="33.005197" lon="35.226688">
        <ele>371.124163</ele>
        <time>2022-10-25T14:52:34.218Z</time>
      </trkpt>
      <trkpt lat="33.005058" lon="35.226016">
        <ele>368.660552</ele>
        <time>2022-10-25T14:52:49.164Z</time>
      </trkpt>
      <trkpt lat="33.005079" lon="35.225591">
        <ele>367.325760</ele>
        <time>2022-10-25T14:52:58.507Z</time>
      </trkpt>
      <trkpt lat="33.004657" lon="35.224460">
        <ele>364.541654</ele>
        <time>2022-10-25T14:53:25.469Z</time>
      </trkpt>
      <trkpt lat="33.004582" lon="35.224677">
        <ele>364.013781</ele>
        <time>2022-10-25T14:53:30.749Z</time>
      </trkpt>
      <trkpt lat="33.004613" lon="35.225058">
        <ele>363.152859</ele>
        <time>2022-10-25T14:53:39.442Z</time>
      </trkpt>
      <trkpt lat="33.004492" lon="35.225445">
        <ele>362.620602</ele>
        <time>2022-10-25T14:53:49.209Z</time>
      </trkpt>
      <trkpt lat="33.004352" lon="35.225266">
        <ele>362.441425</ele>
        <time>2022-10-25T14:53:54.733Z</time>
      </trkpt>
      <trkpt lat="33.004198" lon="35.224864">
        <ele>362.117895</ele>
        <time>2022-10-25T14:54:05.321Z</time>
      </trkpt>
      <trkpt lat="33.004142" lon="35.225369">
        <ele>361.744996</ele>
        <time>2022-10-25T14:54:18.203Z</time>
      </trkpt>
      <trkpt lat="33.004037" lon="35.225611">
        <ele>361.545537</ele>
        <time>2022-10-25T14:54:25.298Z</time>
      </trkpt>
      <trkpt lat="33.004020" lon="35.226229">
        <ele>361.372467</ele>
        <time>2022-10-25T14:54:41.622Z</time>
      </trkpt>
      <trkpt lat="33.003899" lon="35.226894">
        <ele>361.808501</ele>
        <time>2022-10-25T14:55:01.913Z</time>
      </trkpt>
      <trkpt lat="33.003684" lon="35.227263">
        <ele>362.096415</ele>
        <time>2022-10-25T14:55:15.465Z</time>
      </trkpt>
      <trkpt lat="33.003439" lon="35.227363">
        <ele>362.294278</ele>
        <time>2022-10-25T14:55:24.612Z</time>
      </trkpt>
      <trkpt lat="33.003246" lon="35.227606">
        <ele>362.508737</ele>
        <time>2022-10-25T14:55:35.068Z</time>
      </trkpt>
      <trkpt lat="33.003080" lon="35.228020">
        <ele>362.954729</ele>
        <time>2022-10-25T14:55:50.166Z</time>
      </trkpt>
      <trkpt lat="33.003009" lon="35.228330">
        <ele>363.328406</ele>
        <time>2022-10-25T14:56:01.064Z</time>
      </trkpt>
      <trkpt lat="33.002953" lon="35.228373">
        <ele>363.420760</ele>
        <time>2022-10-25T14:56:03.794Z</time>
      </trkpt>
      <trkpt lat="33.002509" lon="35.227992">
        <ele>364.179236</ele>
        <time>2022-10-25T14:56:24.099Z</time>
      </trkpt>
      <trkpt lat="33.002313" lon="35.227618">
        <ele>364.692066</ele>
        <time>2022-10-25T14:56:36.207Z</time>
      </trkpt>
      <trkpt lat="33.002129" lon="35.226701">
        <ele>366.464189</ele>
        <time>2022-10-25T14:57:11.178Z</time>
      </trkpt>
      <trkpt lat="33.001892" lon="35.226031">
        <ele>368.152116</ele>
        <time>2022-10-25T14:57:39.290Z</time>
      </trkpt>
      <trkpt lat="33.001797" lon="35.225923">
        <ele>368.515420</ele>
        <time>2022-10-25T14:57:44.669Z</time>
      </trkpt>
      <trkpt lat="33.001724" lon="35.226003">
        <ele>368.789847</ele>
        <time>2022-10-25T14:57:50.695Z</time>
      </trkpt>
      <trkpt lat="33.001762" lon="35.226396">
        <ele>369.708149</ele>
        <time>2022-10-25T14:58:06.211Z</time>
      </trkpt>
      <trkpt lat="33.002020" lon="35.227511">
        <ele>372.896757</ele>
        <time>2022-10-25T14:58:52.685Z</time>
      </trkpt>
      <trkpt lat="33.002001" lon="35.227589">
        <ele>373.126508</ele>
        <time>2022-10-25T14:58:57.113Z</time>
      </trkpt>
      <trkpt lat="33.001905" lon="35.227593">
        <ele>373.450496</ele>
        <time>2022-10-25T14:59:03.007Z</time>
      </trkpt>
      <trkpt lat="33.001672" lon="35.226954">
        <ele>375.421438</ele>
        <time>2022-10-25T14:59:30.640Z</time>
      </trkpt>
      <trkpt lat="33.001389" lon="35.226671">
        <ele>376.754098</ele>
        <time>2022-10-25T14:59:46.526Z</time>
      </trkpt>
      <trkpt lat="33.001101" lon="35.226602">
        <ele>377.913030</ele>
        <time>2022-10-25T15:00:00.452Z</time>
      </trkpt>
      <trkpt lat="33.001049" lon="35.226744">
        <ele>378.425701</ele>
        <time>2022-10-25T15:00:07.079Z</time>
      </trkpt>
      <trkpt lat="33.000998" lon="35.226771">
        <ele>378.645848</ele>
        <time>2022-10-25T15:00:10.077Z</time>
      </trkpt>
      <trkpt lat="33.000776" lon="35.226751">
        <ele>379.524183</ele>
        <time>2022-10-25T15:00:21.010Z</time>
      </trkpt>
      <trkpt lat="33.000723" lon="35.226851">
        <ele>379.915587</ele>
        <time>2022-10-25T15:00:26.188Z</time>
      </trkpt>
      <trkpt lat="33.000957" lon="35.227145">
        <ele>381.256678</ele>
        <time>2022-10-25T15:00:43.609Z</time>
      </trkpt>
      <trkpt lat="33.000974" lon="35.227247">
        <ele>381.600765</ele>
        <time>2022-10-25T15:00:48.522Z</time>
      </trkpt>
      <trkpt lat="33.000731" lon="35.227191">
        <ele>382.577194</ele>
        <time>2022-10-25T15:01:02.181Z</time>
      </trkpt>
      <trkpt lat="33.000591" lon="35.227289">
        <ele>383.217670</ele>
        <time>2022-10-25T15:01:12.040Z</time>
      </trkpt>
      <trkpt lat="33.000348" lon="35.227334">
        <ele>384.307090</ele>
        <time>2022-10-25T15:01:26.551Z</time>
      </trkpt>
      <trkpt lat="32.999970" lon="35.227521">
        <ele>386.127162</ele>
        <time>2022-10-25T15:01:50.083Z</time>
      </trkpt>
      <trkpt lat="32.999959" lon="35.227656">
        <ele>386.633071</ele>
        <time>2022-10-25T15:01:56.419Z</time>
      </trkpt>
      <trkpt lat="33.000122" lon="35.227930">
        <ele>387.886064</ele>
        <time>2022-10-25T15:02:11.059Z</time>
      </trkpt>
      <trkpt lat="33.000052" lon="35.228104">
        <ele>388.605873</ele>
        <time>2022-10-25T15:02:20.561Z</time>
      </trkpt>
      <trkpt lat="33.000106" lon="35.228331">
        <ele>389.485964</ele>
        <time>2022-10-25T15:02:30.865Z</time>
      </trkpt>
      <trkpt lat="33.000083" lon="35.228378">
        <ele>389.688930</ele>
        <time>2022-10-25T15:02:33.534Z</time>
      </trkpt>
      <trkpt lat="32.999905" lon="35.228529">
        <ele>390.660478</ele>
        <time>2022-10-25T15:02:44.574Z</time>
      </trkpt>
      <trkpt lat="32.999782" lon="35.228495">
        <ele>391.222016</ele>
        <time>2022-10-25T15:02:50.530Z</time>
      </trkpt>
      <trkpt lat="32.999735" lon="35.228671">
        <ele>391.575214</ele>
        <time>2022-10-25T15:02:58.295Z</time>
      </trkpt>
      <trkpt lat="32.999577" lon="35.228701">
        <ele>391.925092</ele>
        <time>2022-10-25T15:03:05.470Z</time>
      </trkpt>
      <trkpt lat="32.999404" lon="35.228848">
        <ele>392.389657</ele>
        <time>2022-10-25T15:03:15.612Z</time>
      </trkpt>
      <trkpt lat="32.999195" lon="35.228843">
        <ele>392.846804</ele>
        <time>2022-10-25T15:03:26.255Z</time>
      </trkpt>
      <trkpt lat="32.999026" lon="35.228904">
        <ele>393.232947</ele>
        <time>2022-10-25T15:03:33.846Z</time>
      </trkpt>
      <trkpt lat="32.999077" lon="35.229029">
        <ele>393.487896</ele>
        <time>2022-10-25T15:03:39.646Z</time>
      </trkpt>
      <trkpt lat="32.999329" lon="35.229128">
        <ele>394.068128</ele>
        <time>2022-10-25T15:03:49.939Z</time>
      </trkpt>
      <trkpt lat="32.999268" lon="35.229233">
        <ele>394.302396</ele>
        <time>2022-10-25T15:03:54.684Z</time>
      </trkpt>
      <trkpt lat="32.999093" lon="35.229136">
        <ele>394.724428</ele>
        <time>2022-10-25T15:04:01.046Z</time>
      </trkpt>
      <trkpt lat="32.998967" lon="35.229277">
        <ele>395.102319</ele>
        <time>2022-10-25T15:04:07.534Z</time>
      </trkpt>
      <trkpt lat="32.998854" lon="35.229262">
        <ele>395.196757</ele>
        <time>2022-10-25T15:04:11.027Z</time>
      </trkpt>
      <trkpt lat="32.998747" lon="35.229247">
        <ele>395.215016</ele>
        <time>2022-10-25T15:04:13.925Z</time>
      </trkpt>
      <trkpt lat="32.998519" lon="35.229302">
        <ele>395.254439</ele>
        <time>2022-10-25T15:04:22.268Z</time>
      </trkpt>
      <trkpt lat="32.998476" lon="35.229392">
        <ele>395.269161</ele>
        <time>2022-10-25T15:04:24.538Z</time>
      </trkpt>
      <trkpt lat="32.998541" lon="35.229622">
        <ele>395.303658</ele>
        <time>2022-10-25T15:04:31.443Z</time>
      </trkpt>
      <trkpt lat="32.998451" lon="35.229641">
        <ele>395.319148</ele>
        <time>2022-10-25T15:04:34.107Z</time>
      </trkpt>
      <trkpt lat="32.998218" lon="35.229524">
        <ele>395.361994</ele>
        <time>2022-10-25T15:04:41.628Z</time>
      </trkpt>
      <trkpt lat="32.997968" lon="35.229481">
        <ele>395.404801</ele>
        <time>2022-10-25T15:04:51.286Z</time>
      </trkpt>
      <trkpt lat="32.997663" lon="35.229258">
        <ele>395.465435</ele>
        <time>2022-10-25T15:05:04.483Z</time>
      </trkpt>
      <trkpt lat="32.997428" lon="35.228855">
        <ele>395.498347</ele>
        <time>2022-10-25T15:05:18.113Z</time>
      </trkpt>
      <trkpt lat="32.996962" lon="35.228699">
        <ele>395.515468</ele>
        <time>2022-10-25T15:05:32.334Z</time>
      </trkpt>
      <trkpt lat="32.996883" lon="35.228634">
        <ele>395.518864</ele>
        <time>2022-10-25T15:05:37.422Z</time>
      </trkpt>
      <trkpt lat="32.996854" lon="35.228538">
        <ele>395.521891</ele>
        <time>2022-10-25T15:05:39.749Z</time>
      </trkpt>
      <trkpt lat="32.996961" lon="35.228072">
        <ele>395.536225</ele>
        <time>2022-10-25T15:05:51.995Z</time>
      </trkpt>
      <trkpt lat="32.996922" lon="35.227822">
        <ele>395.543769</ele>
        <time>2022-10-25T15:06:00.058Z</time>
      </trkpt>
      <trkpt lat="32.996749" lon="35.227461">
        <ele>395.466685</ele>
        <time>2022-10-25T15:06:11.564Z</time>
      </trkpt>
      <trkpt lat="32.996620" lon="35.227416">
        <ele>395.361135</ele>
        <time>2022-10-25T15:06:15.764Z</time>
      </trkpt>
      <trkpt lat="32.996141" lon="35.227604">
        <ele>394.965121</ele>
        <time>2022-10-25T15:06:31.673Z</time>
      </trkpt>
      <trkpt lat="32.995511" lon="35.227626">
        <ele>394.470171</ele>
        <time>2022-10-25T15:06:49.390Z</time>
      </trkpt>
      <trkpt lat="32.995404" lon="35.227418">
        <ele>394.309457</ele>
        <time>2022-10-25T15:06:55.224Z</time>
      </trkpt>
      <trkpt lat="32.995453" lon="35.227259">
        <ele>394.197888</ele>
        <time>2022-10-25T15:06:59.249Z</time>
      </trkpt>
      <trkpt lat="32.995380" lon="35.227124">
        <ele>394.055716</ele>
        <time>2022-10-25T15:07:03.164Z</time>
      </trkpt>
      <trkpt lat="32.995442" lon="35.226884">
        <ele>393.764132</ele>
        <time>2022-10-25T15:07:09.339Z</time>
      </trkpt>
      <trkpt lat="32.995297" lon="35.226600">
        <ele>393.378086</ele>
        <time>2022-10-25T15:07:17.516Z</time>
      </trkpt>
      <trkpt lat="32.995312" lon="35.226435">
        <ele>393.185382</ele>
        <time>2022-10-25T15:07:21.577Z</time>
      </trkpt>
      <trkpt lat="32.995425" lon="35.226261">
        <ele>392.929865</ele>
        <time>2022-10-25T15:07:27.078Z</time>
      </trkpt>
      <trkpt lat="32.995385" lon="35.226204">
        <ele>392.843571</ele>
        <time>2022-10-25T15:07:28.906Z</time>
      </trkpt>
      <trkpt lat="32.995171" lon="35.226252">
        <ele>392.542116</ele>
        <time>2022-10-25T15:07:35.406Z</time>
      </trkpt>
      <trkpt lat="32.995063" lon="35.226158">
        <ele>392.357004</ele>
        <time>2022-10-25T15:07:38.669Z</time>
      </trkpt>
      <trkpt lat="32.994874" lon="35.225642">
        <ele>391.703231</ele>
        <time>2022-10-25T15:07:51.918Z</time>
      </trkpt>
      <trkpt lat="32.994778" lon="35.225198">
        <ele>391.276988</ele>
        <time>2022-10-25T15:08:02.751Z</time>
      </trkpt>
      <trkpt lat="32.994714" lon="35.225181">
        <ele>391.206334</ele>
        <time>2022-10-25T15:08:04.846Z</time>
      </trkpt>
      <trkpt lat="32.994482" lon="35.225375">
        <ele>390.900984</ele>
        <time>2022-10-25T15:08:12.733Z</time>
      </trkpt>
      <trkpt lat="32.994348" lon="35.225313">
        <ele>390.746100</ele>
        <time>2022-10-25T15:08:17.373Z</time>
      </trkpt>
      <trkpt lat="32.994302" lon="35.225238">
        <ele>390.662127</ele>
        <time>2022-10-25T15:08:19.148Z</time>
      </trkpt>
      <trkpt lat="32.994200" lon="35.224834">
        <ele>390.280817</ele>
        <time>2022-10-25T15:08:29.789Z</time>
      </trkpt>
      <trkpt lat="32.994095" lon="35.224415">
        <ele>389.885593</ele>
        <time>2022-10-25T15:08:40.964Z</time>
      </trkpt>
      <trkpt lat="32.994157" lon="35.224253">
        <ele>389.724659</ele>
        <time>2022-10-25T15:08:46.775Z</time>
      </trkpt>
      <trkpt lat="32.994497" lon="35.223888">
        <ele>389.535922</ele>
        <time>2022-10-25T15:09:01.264Z</time>
      </trkpt>
      <trkpt lat="32.994510" lon="35.223710">
        <ele>389.476809</ele>
        <time>2022-10-25T15:09:05.163Z</time>
      </trkpt>
      <trkpt lat="32.994416" lon="35.223505">
        <ele>389.399511</ele>
        <time>2022-10-25T15:09:12.317Z</time>
      </trkpt>
      <trkpt lat="32.994420" lon="35.223442">
        <ele>389.378608</ele>
        <time>2022-10-25T15:09:14.046Z</time>
      </trkpt>
      <trkpt lat="32.994395" lon="35.223287">
        <ele>389.326388</ele>
        <time>2022-10-25T15:09:17.200Z</time>
      </trkpt>
      <trkpt lat="32.994441" lon="35.223124">
        <ele>389.269489</ele>
        <time>2022-10-25T15:09:20.548Z</time>
      </trkpt>
      <trkpt lat="32.994620" lon="35.222917">
        <ele>389.171123</ele>
        <time>2022-10-25T15:09:26.024Z</time>
      </trkpt>
      <trkpt lat="32.995085" lon="35.222623">
        <ele>388.539190</ele>
        <time>2022-10-25T15:09:35.561Z</time>
      </trkpt>
      <trkpt lat="32.995264" lon="35.222387">
        <ele>387.277299</ele>
        <time>2022-10-25T15:09:39.964Z</time>
      </trkpt>
      <trkpt lat="32.995371" lon="35.222149">
        <ele>386.206378</ele>
        <time>2022-10-25T15:09:43.431Z</time>
      </trkpt>
      <trkpt lat="32.995372" lon="35.221614">
        <ele>384.084651</ele>
        <time>2022-10-25T15:09:49.855Z</time>
      </trkpt>
      <trkpt lat="32.995196" lon="35.220746">
        <ele>380.543134</ele>
        <time>2022-10-25T15:09:59.982Z</time>
      </trkpt>
      <trkpt lat="32.995230" lon="35.220382">
        <ele>377.925846</ele>
        <time>2022-10-25T15:10:04.034Z</time>
      </trkpt>
      <trkpt lat="32.995392" lon="35.219869">
        <ele>373.951810</ele>
        <time>2022-10-25T15:10:09.985Z</time>
      </trkpt>
      <trkpt lat="32.995533" lon="35.219623">
        <ele>371.791682</ele>
        <time>2022-10-25T15:10:13.191Z</time>
      </trkpt>
      <trkpt lat="32.995787" lon="35.219278">
        <ele>368.463567</ele>
        <time>2022-10-25T15:10:18.145Z</time>
      </trkpt>
      <trkpt lat="32.996190" lon="35.218732">
        <ele>363.379547</ele>
        <time>2022-10-25T15:10:25.998Z</time>
      </trkpt>
      <trkpt lat="32.996598" lon="35.218209">
        <ele>358.757270</ele>
        <time>2022-10-25T15:10:33.832Z</time>
      </trkpt>
      <trkpt lat="32.996685" lon="35.218097">
        <ele>357.769372</ele>
        <time>2022-10-25T15:10:35.517Z</time>
      </trkpt>
      <trkpt lat="32.997368" lon="35.217149">
        <ele>350.284937</ele>
        <time>2022-10-25T15:10:49.549Z</time>
      </trkpt>
      <trkpt lat="32.997459" lon="35.217165">
        <ele>349.883158</ele>
        <time>2022-10-25T15:10:50.765Z</time>
      </trkpt>
      <trkpt lat="32.997526" lon="35.217088">
        <ele>349.476694</ele>
        <time>2022-10-25T15:10:51.985Z</time>
      </trkpt>
      <trkpt lat="32.997526" lon="35.217005">
        <ele>349.172637</ele>
        <time>2022-10-25T15:10:52.882Z</time>
      </trkpt>
      <trkpt lat="32.997475" lon="35.216937">
        <ele>348.838453</ele>
        <time>2022-10-25T15:10:53.894Z</time>
      </trkpt>
      <trkpt lat="32.997641" lon="35.216282">
        <ele>346.331804</ele>
        <time>2022-10-25T15:11:01.653Z</time>
      </trkpt>
      <trkpt lat="32.997554" lon="35.216118">
        <ele>345.620921</ele>
        <time>2022-10-25T15:11:05.720Z</time>
      </trkpt>
      <trkpt lat="32.997520" lon="35.215930">
        <ele>344.916382</ele>
        <time>2022-10-25T15:11:09.906Z</time>
      </trkpt>
      <trkpt lat="32.997081" lon="35.215474">
        <ele>343.059553</ele>
        <time>2022-10-25T15:11:25.518Z</time>
      </trkpt>
      <trkpt lat="32.997019" lon="35.215219">
        <ele>342.879511</ele>
        <time>2022-10-25T15:11:31.857Z</time>
      </trkpt>
      <trkpt lat="32.996749" lon="35.215172">
        <ele>342.658889</ele>
        <time>2022-10-25T15:11:39.883Z</time>
      </trkpt>
      <trkpt lat="32.996473" lon="35.215199">
        <ele>342.434980</ele>
        <time>2022-10-25T15:11:48.348Z</time>
      </trkpt>
      <trkpt lat="32.996209" lon="35.215333">
        <ele>342.202987</ele>
        <time>2022-10-25T15:11:57.611Z</time>
      </trkpt>
      <trkpt lat="32.995984" lon="35.215380">
        <ele>342.018293</ele>
        <time>2022-10-25T15:12:05.010Z</time>
      </trkpt>
      <trkpt lat="32.995652" lon="35.215286">
        <ele>341.717106</ele>
        <time>2022-10-25T15:12:15.802Z</time>
      </trkpt>
      <trkpt lat="32.995050" lon="35.215266">
        <ele>340.574286</ele>
        <time>2022-10-25T15:12:34.242Z</time>
      </trkpt>
      <trkpt lat="32.994819" lon="35.215172">
        <ele>340.111104</ele>
        <time>2022-10-25T15:12:41.348Z</time>
      </trkpt>
      <trkpt lat="32.994628" lon="35.215172">
        <ele>339.748656</ele>
        <time>2022-10-25T15:12:46.614Z</time>
      </trkpt>
      <trkpt lat="32.994532" lon="35.215259">
        <ele>339.519831</ele>
        <time>2022-10-25T15:12:50.022Z</time>
      </trkpt>
      <trkpt lat="32.994459" lon="35.215145">
        <ele>339.291553</ele>
        <time>2022-10-25T15:12:53.155Z</time>
      </trkpt>
      <trkpt lat="32.994459" lon="35.214474">
        <ele>337.935161</ele>
        <time>2022-10-25T15:13:07.517Z</time>
      </trkpt>
      <trkpt lat="32.994262" lon="35.213663">
        <ele>333.475394</ele>
        <time>2022-10-25T15:13:24.547Z</time>
      </trkpt>
      <trkpt lat="32.994256" lon="35.212730">
        <ele>328.547109</ele>
        <time>2022-10-25T15:13:42.438Z</time>
      </trkpt>
      <trkpt lat="32.994155" lon="35.212556">
        <ele>327.429397</ele>
        <time>2022-10-25T15:13:46.377Z</time>
      </trkpt>
      <trkpt lat="32.993891" lon="35.212401">
        <ele>324.478218</ele>
        <time>2022-10-25T15:13:52.780Z</time>
      </trkpt>
      <trkpt lat="32.993761" lon="35.212260">
        <ele>322.530219</ele>
        <time>2022-10-25T15:13:56.553Z</time>
      </trkpt>
      <trkpt lat="32.993771" lon="35.211880">
        <ele>318.995702</ele>
        <time>2022-10-25T15:14:03.389Z</time>
      </trkpt>
      <trkpt lat="32.993772" lon="35.211818">
        <ele>318.419195</ele>
        <time>2022-10-25T15:14:04.465Z</time>
      </trkpt>
      <trkpt lat="32.993705" lon="35.211670">
        <ele>316.855641</ele>
        <time>2022-10-25T15:14:07.425Z</time>
      </trkpt>
      <trkpt lat="32.993756" lon="35.211449">
        <ele>314.724701</ele>
        <time>2022-10-25T15:14:11.443Z</time>
      </trkpt>
      <trkpt lat="32.993733" lon="35.211335">
        <ele>313.634636</ele>
        <time>2022-10-25T15:14:13.470Z</time>
      </trkpt>
      <trkpt lat="32.993547" lon="35.210825">
        <ele>308.464420</ele>
        <time>2022-10-25T15:14:23.132Z</time>
      </trkpt>
      <trkpt lat="32.993232" lon="35.210208">
        <ele>302.327032</ele>
        <time>2022-10-25T15:14:35.760Z</time>
      </trkpt>
      <trkpt lat="32.993182" lon="35.209926">
        <ele>299.937639</ele>
        <time>2022-10-25T15:14:40.823Z</time>
      </trkpt>
      <trkpt lat="32.993148" lon="35.209570">
        <ele>296.967391</ele>
        <time>2022-10-25T15:14:47.143Z</time>
      </trkpt>
      <trkpt lat="32.993182" lon="35.208973">
        <ele>292.006971</ele>
        <time>2022-10-25T15:14:58.005Z</time>
      </trkpt>
      <trkpt lat="32.992388" lon="35.207350">
        <ele>284.332788</ele>
        <time>2022-10-25T15:15:36.239Z</time>
      </trkpt>
      <trkpt lat="32.992349" lon="35.206900">
        <ele>282.884041</ele>
        <time>2022-10-25T15:15:47.144Z</time>
      </trkpt>
      <trkpt lat="32.992400" lon="35.206182">
        <ele>283.182758</ele>
        <time>2022-10-25T15:16:06.051Z</time>
      </trkpt>
      <trkpt lat="32.992371" lon="35.205901">
        <ele>283.544658</ele>
        <time>2022-10-25T15:16:14.353Z</time>
      </trkpt>
      <trkpt lat="32.992428" lon="35.205672">
        <ele>283.849998</ele>
        <time>2022-10-25T15:16:22.118Z</time>
      </trkpt>
      <trkpt lat="32.992400" lon="35.205330">
        <ele>284.289241</ele>
        <time>2022-10-25T15:16:34.120Z</time>
      </trkpt>
      <trkpt lat="32.992456" lon="35.205163">
        <ele>284.519139</ele>
        <time>2022-10-25T15:16:40.973Z</time>
      </trkpt>
      <trkpt lat="32.992411" lon="35.204760">
        <ele>285.038823</ele>
        <time>2022-10-25T15:16:57.685Z</time>
      </trkpt>
      <trkpt lat="32.992523" lon="35.204203">
        <ele>286.568857</ele>
        <time>2022-10-25T15:17:22.994Z</time>
      </trkpt>
      <trkpt lat="32.992602" lon="35.204197">
        <ele>286.852482</ele>
        <time>2022-10-25T15:17:27.282Z</time>
      </trkpt>
      <trkpt lat="32.992591" lon="35.204103">
        <ele>287.137702</ele>
        <time>2022-10-25T15:17:31.696Z</time>
      </trkpt>
      <trkpt lat="32.992788" lon="35.203901">
        <ele>288.068671</ele>
        <time>2022-10-25T15:17:45.336Z</time>
      </trkpt>
      <trkpt lat="32.992861" lon="35.203620">
        <ele>288.952695</ele>
        <time>2022-10-25T15:17:58.127Z</time>
      </trkpt>
      <trkpt lat="32.992748" lon="35.203418">
        <ele>289.682364</ele>
        <time>2022-10-25T15:18:08.315Z</time>
      </trkpt>
      <trkpt lat="32.992816" lon="35.203264">
        <ele>290.205371</ele>
        <time>2022-10-25T15:18:15.461Z</time>
      </trkpt>
      <trkpt lat="32.992805" lon="35.203130">
        <ele>290.609984</ele>
        <time>2022-10-25T15:18:20.860Z</time>
      </trkpt>
      <trkpt lat="32.992720" lon="35.202929">
        <ele>291.286451</ele>
        <time>2022-10-25T15:18:29.647Z</time>
      </trkpt>
      <trkpt lat="32.992456" lon="35.202540">
        <ele>291.920235</ele>
        <time>2022-10-25T15:18:48.703Z</time>
      </trkpt>
      <trkpt lat="32.992540" lon="35.202050">
        <ele>292.301230</ele>
        <time>2022-10-25T15:19:06.222Z</time>
      </trkpt>
      <trkpt lat="32.992563" lon="35.201614">
        <ele>292.634028</ele>
        <time>2022-10-25T15:19:19.680Z</time>
      </trkpt>
      <trkpt lat="32.992737" lon="35.201352">
        <ele>292.888610</ele>
        <time>2022-10-25T15:19:28.565Z</time>
      </trkpt>
      <trkpt lat="32.992726" lon="35.201251">
        <ele>292.966197</ele>
        <time>2022-10-25T15:19:31.091Z</time>
      </trkpt>
      <trkpt lat="32.992855" lon="35.201037">
        <ele>293.166956</ele>
        <time>2022-10-25T15:19:37.602Z</time>
      </trkpt>
      <trkpt lat="32.992765" lon="35.200936">
        <ele>293.225928</ele>
        <time>2022-10-25T15:19:41.156Z</time>
      </trkpt>
      <trkpt lat="32.992608" lon="35.200118">
        <ele>292.225246</ele>
        <time>2022-10-25T15:20:00.947Z</time>
      </trkpt>
      <trkpt lat="32.992518" lon="35.200071">
        <ele>292.085549</ele>
        <time>2022-10-25T15:20:03.750Z</time>
      </trkpt>
      <trkpt lat="32.992349" lon="35.199346">
        <ele>291.188213</ele>
        <time>2022-10-25T15:20:21.611Z</time>
      </trkpt>
      <trkpt lat="32.992248" lon="35.199279">
        <ele>291.023882</ele>
        <time>2022-10-25T15:20:24.880Z</time>
      </trkpt>
      <trkpt lat="32.992219" lon="35.199165">
        <ele>290.881821</ele>
        <time>2022-10-25T15:20:27.672Z</time>
      </trkpt>
      <trkpt lat="32.992315" lon="35.198937">
        <ele>290.561192</ele>
        <time>2022-10-25T15:20:33.655Z</time>
      </trkpt>
      <trkpt lat="32.992567" lon="35.198778">
        <ele>290.102026</ele>
        <time>2022-10-25T15:20:41.622Z</time>
      </trkpt>
      <trkpt lat="32.992709" lon="35.198689">
        <ele>289.843665</ele>
        <time>2022-10-25T15:20:46.171Z</time>
      </trkpt>
      <trkpt lat="32.992838" lon="35.198414">
        <ele>289.418055</ele>
        <time>2022-10-25T15:20:53.577Z</time>
      </trkpt>
      <trkpt lat="32.992979" lon="35.198373">
        <ele>289.184323</ele>
        <time>2022-10-25T15:20:57.719Z</time>
      </trkpt>
      <trkpt lat="32.993328" lon="35.198139">
        <ele>288.539488</ele>
        <time>2022-10-25T15:21:09.038Z</time>
      </trkpt>
      <trkpt lat="32.993339" lon="35.197863">
        <ele>288.166258</ele>
        <time>2022-10-25T15:21:15.528Z</time>
      </trkpt>
      <trkpt lat="32.993227" lon="35.197494">
        <ele>287.537689</ele>
        <time>2022-10-25T15:21:24.748Z</time>
      </trkpt>
      <trkpt lat="32.993294" lon="35.196924">
        <ele>286.305203</ele>
        <time>2022-10-25T15:21:38.043Z</time>
      </trkpt>
      <trkpt lat="32.993199" lon="35.196743">
        <ele>285.847989</ele>
        <time>2022-10-25T15:21:42.859Z</time>
      </trkpt>
      <trkpt lat="32.992816" lon="35.196736">
        <ele>284.870057</ele>
        <time>2022-10-25T15:21:53.122Z</time>
      </trkpt>
      <trkpt lat="32.992343" lon="35.196394">
        <ele>283.457754</ele>
        <time>2022-10-25T15:22:07.751Z</time>
      </trkpt>
      <trkpt lat="32.992248" lon="35.196441">
        <ele>283.172051</ele>
        <time>2022-10-25T15:22:10.405Z</time>
      </trkpt>
      <trkpt lat="32.992090" lon="35.196428">
        <ele>282.228026</ele>
        <time>2022-10-25T15:22:14.511Z</time>
      </trkpt>
      <trkpt lat="32.991961" lon="35.196273">
        <ele>281.136355</ele>
        <time>2022-10-25T15:22:18.977Z</time>
      </trkpt>
      <trkpt lat="32.991634" lon="35.196220">
        <ele>279.169290</ele>
        <time>2022-10-25T15:22:26.761Z</time>
      </trkpt>
      <trkpt lat="32.991567" lon="35.195945">
        <ele>277.737597</ele>
        <time>2022-10-25T15:22:32.248Z</time>
      </trkpt>
      <trkpt lat="32.991471" lon="35.195878">
        <ele>277.074542</ele>
        <time>2022-10-25T15:22:34.869Z</time>
      </trkpt>
      <trkpt lat="32.991263" lon="35.195562">
        <ele>275.066292</ele>
        <time>2022-10-25T15:22:42.534Z</time>
      </trkpt>
      <trkpt lat="32.991049" lon="35.195576">
        <ele>273.788791</ele>
        <time>2022-10-25T15:22:47.276Z</time>
      </trkpt>
      <trkpt lat="32.990993" lon="35.195502">
        <ele>273.290499</ele>
        <time>2022-10-25T15:22:49.264Z</time>
      </trkpt>
      <trkpt lat="32.991032" lon="35.195408">
        <ele>272.766190</ele>
        <time>2022-10-25T15:22:51.333Z</time>
      </trkpt>
      <trkpt lat="32.990988" lon="35.195220">
        <ele>271.666564</ele>
        <time>2022-10-25T15:22:54.901Z</time>
      </trkpt>
      <trkpt lat="32.990796" lon="35.194308">
        <ele>266.135274</ele>
        <time>2022-10-25T15:23:12.797Z</time>
      </trkpt>
      <trkpt lat="32.990723" lon="35.194180">
        <ele>265.224736</ele>
        <time>2022-10-25T15:23:15.853Z</time>
      </trkpt>
      <trkpt lat="32.990650" lon="35.193302">
        <ele>260.034540</ele>
        <time>2022-10-25T15:23:32.467Z</time>
      </trkpt>
      <trkpt lat="32.990762" lon="35.192872">
        <ele>258.106612</ele>
        <time>2022-10-25T15:23:41.439Z</time>
      </trkpt>
      <trkpt lat="32.990745" lon="35.191598">
        <ele>252.780034</ele>
        <time>2022-10-25T15:24:07.523Z</time>
      </trkpt>
      <trkpt lat="32.990813" lon="35.191014">
        <ele>250.497040</ele>
        <time>2022-10-25T15:24:19.738Z</time>
      </trkpt>
      <trkpt lat="32.990773" lon="35.190826">
        <ele>249.933180</ele>
        <time>2022-10-25T15:24:23.704Z</time>
      </trkpt>
      <trkpt lat="32.990790" lon="35.190242">
        <ele>248.234362</ele>
        <time>2022-10-25T15:24:35.873Z</time>
      </trkpt>
      <trkpt lat="32.990627" lon="35.189592">
        <ele>246.262043</ele>
        <time>2022-10-25T15:24:50.344Z</time>
      </trkpt>
      <trkpt lat="32.990622" lon="35.188881">
        <ele>244.611340</ele>
        <time>2022-10-25T15:25:05.984Z</time>
      </trkpt>
      <trkpt lat="32.990638" lon="35.188538">
        <ele>244.473612</ele>
        <time>2022-10-25T15:25:14.527Z</time>
      </trkpt>
      <trkpt lat="32.990790" lon="35.187901">
        <ele>244.208094</ele>
        <time>2022-10-25T15:25:31.224Z</time>
      </trkpt>
      <trkpt lat="32.990762" lon="35.187579">
        <ele>244.078307</ele>
        <time>2022-10-25T15:25:40.290Z</time>
      </trkpt>
      <trkpt lat="32.990899" lon="35.187352">
        <ele>243.966188</ele>
        <time>2022-10-25T15:25:48.526Z</time>
      </trkpt>
      <trkpt lat="32.990879" lon="35.187220">
        <ele>243.912411</ele>
        <time>2022-10-25T15:25:52.155Z</time>
      </trkpt>
      <trkpt lat="32.990924" lon="35.187007">
        <ele>243.824348</ele>
        <time>2022-10-25T15:25:57.902Z</time>
      </trkpt>
      <trkpt lat="32.990991" lon="35.186919">
        <ele>243.844185</ele>
        <time>2022-10-25T15:26:03.173Z</time>
      </trkpt>
      <trkpt lat="32.991292" lon="35.186771">
        <ele>243.941540</ele>
        <time>2022-10-25T15:26:14.611Z</time>
      </trkpt>
      <trkpt lat="32.991436" lon="35.186811">
        <ele>243.985751</ele>
        <time>2022-10-25T15:26:19.537Z</time>
      </trkpt>
      <trkpt lat="32.991580" lon="35.187046">
        <ele>244.058740</ele>
        <time>2022-10-25T15:26:29.084Z</time>
      </trkpt>
      <trkpt lat="32.991729" lon="35.187179">
        <ele>244.114395</ele>
        <time>2022-10-25T15:26:34.718Z</time>
      </trkpt>
      <trkpt lat="32.992330" lon="35.187345">
        <ele>244.298859</ele>
        <time>2022-10-25T15:26:56.350Z</time>
      </trkpt>
      <trkpt lat="32.992551" lon="35.187096">
        <ele>244.030203</ele>
        <time>2022-10-25T15:27:05.225Z</time>
      </trkpt>
      <trkpt lat="32.992510" lon="35.186911">
        <ele>243.566959</ele>
        <time>2022-10-25T15:27:09.847Z</time>
      </trkpt>
      <trkpt lat="32.992568" lon="35.186650">
        <ele>242.913295</ele>
        <time>2022-10-25T15:27:16.290Z</time>
      </trkpt>
      <trkpt lat="32.992681" lon="35.186604">
        <ele>242.568646</ele>
        <time>2022-10-25T15:27:19.512Z</time>
      </trkpt>
      <trkpt lat="32.992815" lon="35.186753">
        <ele>242.039767</ele>
        <time>2022-10-25T15:27:24.209Z</time>
      </trkpt>
      <trkpt lat="32.992895" lon="35.186751">
        <ele>241.808805</ele>
        <time>2022-10-25T15:27:26.444Z</time>
      </trkpt>
      <trkpt lat="32.992895" lon="35.186486">
        <ele>241.167261</ele>
        <time>2022-10-25T15:27:32.004Z</time>
      </trkpt>
      <trkpt lat="32.992957" lon="35.186172">
        <ele>240.386311</ele>
        <time>2022-10-25T15:27:38.866Z</time>
      </trkpt>
      <trkpt lat="32.993058" lon="35.185846">
        <ele>239.544970</ele>
        <time>2022-10-25T15:27:46.105Z</time>
      </trkpt>
      <trkpt lat="32.993254" lon="35.185513">
        <ele>238.044098</ele>
        <time>2022-10-25T15:27:54.475Z</time>
      </trkpt>
      <trkpt lat="32.993241" lon="35.185290">
        <ele>237.040863</ele>
        <time>2022-10-25T15:27:58.847Z</time>
      </trkpt>
      <trkpt lat="32.993405" lon="35.184925">
        <ele>235.182501</ele>
        <time>2022-10-25T15:28:07.102Z</time>
      </trkpt>
      <trkpt lat="32.993550" lon="35.184843">
        <ele>234.323766</ele>
        <time>2022-10-25T15:28:10.898Z</time>
      </trkpt>
      <trkpt lat="32.993736" lon="35.183987">
        <ele>230.355238</ele>
        <time>2022-10-25T15:28:28.357Z</time>
      </trkpt>
      <trkpt lat="32.993794" lon="35.183881">
        <ele>229.787232</ele>
        <time>2022-10-25T15:28:30.848Z</time>
      </trkpt>
      <trkpt lat="32.994019" lon="35.183878">
        <ele>228.768785</ele>
        <time>2022-10-25T15:28:36.011Z</time>
      </trkpt>
      <trkpt lat="32.993985" lon="35.182707">
        <ele>224.530115</ele>
        <time>2022-10-25T15:28:49.441Z</time>
      </trkpt>
      <trkpt lat="32.994018" lon="35.182405">
        <ele>223.428387</ele>
        <time>2022-10-25T15:28:55.839Z</time>
      </trkpt>
      <trkpt lat="32.993980" lon="35.181298">
        <ele>220.212596</ele>
        <time>2022-10-25T15:29:19.906Z</time>
      </trkpt>
      <trkpt lat="32.994098" lon="35.180670">
        <ele>218.665320</ele>
        <time>2022-10-25T15:29:33.946Z</time>
      </trkpt>
      <trkpt lat="32.994311" lon="35.179921">
        <ele>216.763866</ele>
        <time>2022-10-25T15:29:51.613Z</time>
      </trkpt>
      <trkpt lat="32.994481" lon="35.179179">
        <ele>214.976202</ele>
        <time>2022-10-25T15:30:08.947Z</time>
      </trkpt>
      <trkpt lat="32.994884" lon="35.177418">
        <ele>210.290356</ele>
        <time>2022-10-25T15:30:49.111Z</time>
      </trkpt>
      <trkpt lat="32.994988" lon="35.176660">
        <ele>207.620310</ele>
        <time>2022-10-25T15:31:05.220Z</time>
      </trkpt>
      <trkpt lat="32.995239" lon="35.175817">
        <ele>204.510628</ele>
        <time>2022-10-25T15:31:23.333Z</time>
      </trkpt>
      <trkpt lat="32.995624" lon="35.174006">
        <ele>197.203725</ele>
        <time>2022-10-25T15:32:01.034Z</time>
      </trkpt>
      <trkpt lat="32.995934" lon="35.172889">
        <ele>193.507194</ele>
        <time>2022-10-25T15:32:26.092Z</time>
      </trkpt>
      <trkpt lat="32.995938" lon="35.172166">
        <ele>191.493076</ele>
        <time>2022-10-25T15:32:41.840Z</time>
      </trkpt>
      <trkpt lat="32.995838" lon="35.171852">
        <ele>190.557423</ele>
        <time>2022-10-25T15:32:49.203Z</time>
      </trkpt>
      <trkpt lat="32.995955" lon="35.171583">
        <ele>189.697664</ele>
        <time>2022-10-25T15:32:55.825Z</time>
      </trkpt>
      <trkpt lat="32.995900" lon="35.171244">
        <ele>188.547777</ele>
        <time>2022-10-25T15:33:03.324Z</time>
      </trkpt>
      <trkpt lat="32.995959" lon="35.171074">
        <ele>187.935077</ele>
        <time>2022-10-25T15:33:07.263Z</time>
      </trkpt>
      <trkpt lat="32.995942" lon="35.171009">
        <ele>187.708329</ele>
        <time>2022-10-25T15:33:08.756Z</time>
      </trkpt>
      <trkpt lat="32.996030" lon="35.170865">
        <ele>187.114975</ele>
        <time>2022-10-25T15:33:12.549Z</time>
      </trkpt>
      <trkpt lat="32.996068" lon="35.170271">
        <ele>185.131058</ele>
        <time>2022-10-25T15:33:25.037Z</time>
      </trkpt>
      <trkpt lat="32.996264" lon="35.170017">
        <ele>183.981623</ele>
        <time>2022-10-25T15:33:32.174Z</time>
      </trkpt>
      <trkpt lat="32.996302" lon="35.169697">
        <ele>182.905315</ele>
        <time>2022-10-25T15:33:38.753Z</time>
      </trkpt>
      <trkpt lat="32.996352" lon="35.169613">
        <ele>182.528908</ele>
        <time>2022-10-25T15:33:40.811Z</time>
      </trkpt>
      <trkpt lat="32.996465" lon="35.169613">
        <ele>181.912159</ele>
        <time>2022-10-25T15:33:43.532Z</time>
      </trkpt>
      <trkpt lat="32.996469" lon="35.169259">
        <ele>180.291538</ele>
        <time>2022-10-25T15:33:50.615Z</time>
      </trkpt>
      <trkpt lat="32.996578" lon="35.168959">
        <ele>178.794931</ele>
        <time>2022-10-25T15:33:57.145Z</time>
      </trkpt>
      <trkpt lat="32.996913" lon="35.168506">
        <ele>176.030309</ele>
        <time>2022-10-25T15:34:09.230Z</time>
      </trkpt>
      <trkpt lat="32.997084" lon="35.168116">
        <ele>174.015808</ele>
        <time>2022-10-25T15:34:17.943Z</time>
      </trkpt>
      <trkpt lat="32.997151" lon="35.168037">
        <ele>173.501513</ele>
        <time>2022-10-25T15:34:20.136Z</time>
      </trkpt>
      <trkpt lat="32.997452" lon="35.167902">
        <ele>171.477308</ele>
        <time>2022-10-25T15:34:27.622Z</time>
      </trkpt>
      <trkpt lat="32.997820" lon="35.167822">
        <ele>168.931019</ele>
        <time>2022-10-25T15:34:36.239Z</time>
      </trkpt>
      <trkpt lat="32.998000" lon="35.167832">
        <ele>167.704422</ele>
        <time>2022-10-25T15:34:40.380Z</time>
      </trkpt>
      <trkpt lat="32.998155" lon="35.167249">
        <ele>164.212848</ele>
        <time>2022-10-25T15:34:52.262Z</time>
      </trkpt>
      <trkpt lat="32.998155" lon="35.166989">
        <ele>162.728510</ele>
        <time>2022-10-25T15:34:57.406Z</time>
      </trkpt>
      <trkpt lat="32.998331" lon="35.166251">
        <ele>157.853584</ele>
        <time>2022-10-25T15:35:11.555Z</time>
      </trkpt>
      <trkpt lat="32.998640" lon="35.165648">
        <ele>152.929538</ele>
        <time>2022-10-25T15:35:24.542Z</time>
      </trkpt>
      <trkpt lat="32.998833" lon="35.165488">
        <ele>150.976511</ele>
        <time>2022-10-25T15:35:29.776Z</time>
      </trkpt>
      <trkpt lat="32.998915" lon="35.165277">
        <ele>149.356057</ele>
        <time>2022-10-25T15:35:33.957Z</time>
      </trkpt>
      <trkpt lat="32.999167" lon="35.164985">
        <ele>146.436526</ele>
        <time>2022-10-25T15:35:41.779Z</time>
      </trkpt>
      <trkpt lat="32.999368" lon="35.164830">
        <ele>144.779020</ele>
        <time>2022-10-25T15:35:47.250Z</time>
      </trkpt>
      <trkpt lat="32.999422" lon="35.164466">
        <ele>142.914775</ele>
        <time>2022-10-25T15:35:54.312Z</time>
      </trkpt>
      <trkpt lat="32.999556" lon="35.164371">
        <ele>141.977309</ele>
        <time>2022-10-25T15:35:57.726Z</time>
      </trkpt>
      <trkpt lat="32.999790" lon="35.164052">
        <ele>139.839969</ele>
        <time>2022-10-25T15:36:05.816Z</time>
      </trkpt>
      <trkpt lat="32.999887" lon="35.163877">
        <ele>138.782067</ele>
        <time>2022-10-25T15:36:09.930Z</time>
      </trkpt>
      <trkpt lat="32.999924" lon="35.163588">
        <ele>137.307688</ele>
        <time>2022-10-25T15:36:15.858Z</time>
      </trkpt>
      <trkpt lat="33.000225" lon="35.163139">
        <ele>134.543640</ele>
        <time>2022-10-25T15:36:28.195Z</time>
      </trkpt>
      <trkpt lat="33.000250" lon="35.162980">
        <ele>133.988260</ele>
        <time>2022-10-25T15:36:31.657Z</time>
      </trkpt>
      <trkpt lat="33.000000" lon="35.162137">
        <ele>130.918505</ele>
        <time>2022-10-25T15:36:50.730Z</time>
      </trkpt>
      <trkpt lat="32.999941" lon="35.161528">
        <ele>128.813811</ele>
        <time>2022-10-25T15:37:03.410Z</time>
      </trkpt>
      <trkpt lat="32.999786" lon="35.161099">
        <ele>127.148722</ele>
        <time>2022-10-25T15:37:12.936Z</time>
      </trkpt>
      <trkpt lat="32.999665" lon="35.160940">
        <ele>126.236342</ele>
        <time>2022-10-25T15:37:17.270Z</time>
      </trkpt>
      <trkpt lat="32.999453" lon="35.159701">
        <ele>120.862687</ele>
        <time>2022-10-25T15:37:42.402Z</time>
      </trkpt>
      <trkpt lat="32.999385" lon="35.159321">
        <ele>119.211506</ele>
        <time>2022-10-25T15:37:50.308Z</time>
      </trkpt>
      <trkpt lat="32.999418" lon="35.159265">
        <ele>118.920660</ele>
        <time>2022-10-25T15:37:51.651Z</time>
      </trkpt>
      <trkpt lat="32.999639" lon="35.158873">
        <ele>117.229239</ele>
        <time>2022-10-25T15:38:01.364Z</time>
      </trkpt>
      <trkpt lat="32.999692" lon="35.158502">
        <ele>115.980383</ele>
        <time>2022-10-25T15:38:09.275Z</time>
      </trkpt>
      <trkpt lat="32.999994" lon="35.157939">
        <ele>113.762679</ele>
        <time>2022-10-25T15:38:23.168Z</time>
      </trkpt>
      <trkpt lat="33.000077" lon="35.157881">
        <ele>113.382029</ele>
        <time>2022-10-25T15:38:25.573Z</time>
      </trkpt>
      <trkpt lat="33.000302" lon="35.158015">
        <ele>112.386898</ele>
        <time>2022-10-25T15:38:31.977Z</time>
      </trkpt>
      <trkpt lat="33.000510" lon="35.158035">
        <ele>111.561230</ele>
        <time>2022-10-25T15:38:37.403Z</time>
      </trkpt>
      <trkpt lat="33.000723" lon="35.157909">
        <ele>110.620673</ele>
        <time>2022-10-25T15:38:43.588Z</time>
      </trkpt>
      <trkpt lat="33.000847" lon="35.157703">
        <ele>109.779571</ele>
        <time>2022-10-25T15:38:49.344Z</time>
      </trkpt>
      <trkpt lat="33.000944" lon="35.157582">
        <ele>109.224339</ele>
        <time>2022-10-25T15:38:52.833Z</time>
      </trkpt>
      <trkpt lat="33.001260" lon="35.157416">
        <ele>107.858583</ele>
        <time>2022-10-25T15:39:01.399Z</time>
      </trkpt>
      <trkpt lat="33.001393" lon="35.157209">
        <ele>106.993612</ele>
        <time>2022-10-25T15:39:06.855Z</time>
      </trkpt>
      <trkpt lat="33.001518" lon="35.156841">
        <ele>105.676621</ele>
        <time>2022-10-25T15:39:15.047Z</time>
      </trkpt>
      <trkpt lat="33.001566" lon="35.156124">
        <ele>103.304671</ele>
        <time>2022-10-25T15:39:29.710Z</time>
      </trkpt>
      <trkpt lat="33.001530" lon="35.155898">
        <ele>102.554374</ele>
        <time>2022-10-25T15:39:34.446Z</time>
      </trkpt>
      <trkpt lat="33.001551" lon="35.155479">
        <ele>101.185333</ele>
        <time>2022-10-25T15:39:43.355Z</time>
      </trkpt>
      <trkpt lat="33.001691" lon="35.154965">
        <ele>99.422682</ele>
        <time>2022-10-25T15:39:54.775Z</time>
      </trkpt>
      <trkpt lat="33.001723" lon="35.154727">
        <ele>98.636514</ele>
        <time>2022-10-25T15:39:59.793Z</time>
      </trkpt>
      <trkpt lat="33.001704" lon="35.154389">
        <ele>97.531628</ele>
        <time>2022-10-25T15:40:07.014Z</time>
      </trkpt>
      <trkpt lat="33.001753" lon="35.154126">
        <ele>96.790852</ele>
        <time>2022-10-25T15:40:12.698Z</time>
      </trkpt>
      <trkpt lat="33.001918" lon="35.153739">
        <ele>95.785155</ele>
        <time>2022-10-25T15:40:22.187Z</time>
      </trkpt>
      <trkpt lat="33.001393" lon="35.153177">
        <ele>93.836341</ele>
        <time>2022-10-25T15:40:40.692Z</time>
      </trkpt>
      <trkpt lat="33.001282" lon="35.152899">
        <ele>93.123080</ele>
        <time>2022-10-25T15:40:47.711Z</time>
      </trkpt>
      <trkpt lat="33.001238" lon="35.152787">
        <ele>92.836572</ele>
        <time>2022-10-25T15:40:50.592Z</time>
      </trkpt>
      <trkpt lat="33.000737" lon="35.152335">
        <ele>91.590412</ele>
        <time>2022-10-25T15:41:07.580Z</time>
      </trkpt>
      <trkpt lat="33.000583" lon="35.151898">
        <ele>90.999331</ele>
        <time>2022-10-25T15:41:18.465Z</time>
      </trkpt>
      <trkpt lat="33.000427" lon="35.151736">
        <ele>90.691746</ele>
        <time>2022-10-25T15:41:24.180Z</time>
      </trkpt>
      <trkpt lat="33.000177" lon="35.151606">
        <ele>90.286221</ele>
        <time>2022-10-25T15:41:32.020Z</time>
      </trkpt>
      <trkpt lat="32.999972" lon="35.151530">
        <ele>89.967022</ele>
        <time>2022-10-25T15:41:38.259Z</time>
      </trkpt>
      <trkpt lat="32.999756" lon="35.151465">
        <ele>89.635790</ele>
        <time>2022-10-25T15:41:44.815Z</time>
      </trkpt>
      <trkpt lat="32.999549" lon="35.151312">
        <ele>89.395093</ele>
        <time>2022-10-25T15:41:52.492Z</time>
      </trkpt>
      <trkpt lat="32.999489" lon="35.151054">
        <ele>89.251781</ele>
        <time>2022-10-25T15:41:59.777Z</time>
      </trkpt>
      <trkpt lat="32.999297" lon="35.150714">
        <ele>89.032376</ele>
        <time>2022-10-25T15:42:10.532Z</time>
      </trkpt>
      <trkpt lat="32.999278" lon="35.150613">
        <ele>88.976969</ele>
        <time>2022-10-25T15:42:13.172Z</time>
      </trkpt>
      <trkpt lat="32.999388" lon="35.150288">
        <ele>88.789371</ele>
        <time>2022-10-25T15:42:21.904Z</time>
      </trkpt>
      <trkpt lat="32.999391" lon="35.150060">
        <ele>88.667313</ele>
        <time>2022-10-25T15:42:27.391Z</time>
      </trkpt>
      <trkpt lat="32.999492" lon="35.149798">
        <ele>88.512965</ele>
        <time>2022-10-25T15:42:34.709Z</time>
      </trkpt>
      <trkpt lat="32.999649" lon="35.149621">
        <ele>88.375062</ele>
        <time>2022-10-25T15:42:41.343Z</time>
      </trkpt>
      <trkpt lat="32.999981" lon="35.149384">
        <ele>87.620427</ele>
        <time>2022-10-25T15:42:52.687Z</time>
      </trkpt>
      <trkpt lat="33.000410" lon="35.149331">
        <ele>86.680811</ele>
        <time>2022-10-25T15:43:04.669Z</time>
      </trkpt>
      <trkpt lat="33.000644" lon="35.149228">
        <ele>86.137396</ele>
        <time>2022-10-25T15:43:11.362Z</time>
      </trkpt>
      <trkpt lat="33.000802" lon="35.149069">
        <ele>85.686974</ele>
        <time>2022-10-25T15:43:16.937Z</time>
      </trkpt>
      <trkpt lat="33.000973" lon="35.148789">
        <ele>85.054119</ele>
        <time>2022-10-25T15:43:24.595Z</time>
      </trkpt>
      <trkpt lat="33.001212" lon="35.148559">
        <ele>84.379982</ele>
        <time>2022-10-25T15:43:32.429Z</time>
      </trkpt>
      <trkpt lat="33.001371" lon="35.148464">
        <ele>83.936746</ele>
        <time>2022-10-25T15:43:36.893Z</time>
      </trkpt>
      <trkpt lat="33.001386" lon="35.148455">
        <ele>83.894896</ele>
        <time>2022-10-25T15:43:37.277Z</time>
      </trkpt>
      <trkpt lat="33.001808" lon="35.148399">
        <ele>82.836668</ele>
        <time>2022-10-25T15:43:48.264Z</time>
      </trkpt>
      <trkpt lat="33.001961" lon="35.148095">
        <ele>82.095628</ele>
        <time>2022-10-25T15:43:55.990Z</time>
      </trkpt>
      <trkpt lat="33.002312" lon="35.147880">
        <ele>81.112170</ele>
        <time>2022-10-25T15:44:06.553Z</time>
      </trkpt>
      <trkpt lat="33.002596" lon="35.147909">
        <ele>80.401776</ele>
        <time>2022-10-25T15:44:14.299Z</time>
      </trkpt>
      <trkpt lat="33.002682" lon="35.147923">
        <ele>80.185454</ele>
        <time>2022-10-25T15:44:16.830Z</time>
      </trkpt>
      <trkpt lat="33.003068" lon="35.147924">
        <ele>79.898180</ele>
        <time>2022-10-25T15:44:28.180Z</time>
      </trkpt>
      <trkpt lat="33.003996" lon="35.148202">
        <ele>79.767633</ele>
        <time>2022-10-25T15:44:57.875Z</time>
      </trkpt>
      <trkpt lat="33.004188" lon="35.148184">
        <ele>79.741356</ele>
        <time>2022-10-25T15:45:05.370Z</time>
      </trkpt>
      <trkpt lat="33.005207" lon="35.148372">
        <ele>79.672488</ele>
        <time>2022-10-25T15:45:41.894Z</time>
      </trkpt>
      <trkpt lat="33.005311" lon="35.148354">
        <ele>79.669443</ele>
        <time>2022-10-25T15:45:45.307Z</time>
      </trkpt>
      <trkpt lat="33.005535" lon="35.148434">
        <ele>79.662666</ele>
        <time>2022-10-25T15:45:53.011Z</time>
      </trkpt>
      <trkpt lat="33.005700" lon="35.148460">
        <ele>79.657842</ele>
        <time>2022-10-25T15:45:58.273Z</time>
      </trkpt>
      <trkpt lat="33.005981" lon="35.148927">
        <ele>79.643872</ele>
        <time>2022-10-25T15:46:12.579Z</time>
      </trkpt>
      <trkpt lat="33.006053" lon="35.149046">
        <ele>79.640306</ele>
        <time>2022-10-25T15:46:16.260Z</time>
      </trkpt>
      <trkpt lat="33.006205" lon="35.149173">
        <ele>79.253030</ele>
        <time>2022-10-25T15:46:21.651Z</time>
      </trkpt>
      <trkpt lat="33.006327" lon="35.149362">
        <ele>78.786275</ele>
        <time>2022-10-25T15:46:27.422Z</time>
      </trkpt>
      <trkpt lat="33.006374" lon="35.149530">
        <ele>78.439689</ele>
        <time>2022-10-25T15:46:31.657Z</time>
      </trkpt>
      <trkpt lat="33.006364" lon="35.149846">
        <ele>77.820839</ele>
        <time>2022-10-25T15:46:39.266Z</time>
      </trkpt>
      <trkpt lat="33.006393" lon="35.150030">
        <ele>77.454449</ele>
        <time>2022-10-25T15:46:43.440Z</time>
      </trkpt>
      <trkpt lat="33.006303" lon="35.150441">
        <ele>76.623156</ele>
        <time>2022-10-25T15:46:52.819Z</time>
      </trkpt>
      <trkpt lat="33.006320" lon="35.150796">
        <ele>75.927292</ele>
        <time>2022-10-25T15:47:00.252Z</time>
      </trkpt>
      <trkpt lat="33.006347" lon="35.150903">
        <ele>75.708620</ele>
        <time>2022-10-25T15:47:02.616Z</time>
      </trkpt>
      <trkpt lat="33.006421" lon="35.151200">
        <ele>74.909051</ele>
        <time>2022-10-25T15:47:09.093Z</time>
      </trkpt>
      <trkpt lat="33.006395" lon="35.151282">
        <ele>74.640020</ele>
        <time>2022-10-25T15:47:10.985Z</time>
      </trkpt>
      <trkpt lat="33.006453" lon="35.151371">
        <ele>74.294119</ele>
        <time>2022-10-25T15:47:13.478Z</time>
      </trkpt>
      <trkpt lat="33.006491" lon="35.151317">
        <ele>74.077787</ele>
        <time>2022-10-25T15:47:15.054Z</time>
      </trkpt>
      <trkpt lat="33.006638" lon="35.150917">
        <ele>72.737556</ele>
        <time>2022-10-25T15:47:24.289Z</time>
      </trkpt>
      <trkpt lat="33.006746" lon="35.150764">
        <ele>72.123831</ele>
        <time>2022-10-25T15:47:28.465Z</time>
      </trkpt>
      <trkpt lat="33.006765" lon="35.150741">
        <ele>72.024754</ele>
        <time>2022-10-25T15:47:29.170Z</time>
      </trkpt>
      <trkpt lat="33.006970" lon="35.150688">
        <ele>71.257139</ele>
        <time>2022-10-25T15:47:34.582Z</time>
      </trkpt>
      <trkpt lat="33.007005" lon="35.150635">
        <ele>71.050116</ele>
        <time>2022-10-25T15:47:35.923Z</time>
      </trkpt>
      <trkpt lat="33.007019" lon="35.149886">
        <ele>68.755362</ele>
        <time>2022-10-25T15:47:51.943Z</time>
      </trkpt>
      <trkpt lat="33.006947" lon="35.148732">
        <ele>65.345882</ele>
        <time>2022-10-25T15:48:16.106Z</time>
      </trkpt>
      <trkpt lat="33.006913" lon="35.148204">
        <ele>63.785632</ele>
        <time>2022-10-25T15:48:28.066Z</time>
      </trkpt>
      <trkpt lat="33.007012" lon="35.148057">
        <ele>63.230141</ele>
        <time>2022-10-25T15:48:31.955Z</time>
      </trkpt>
      <trkpt lat="33.007238" lon="35.147976">
        <ele>62.431462</ele>
        <time>2022-10-25T15:48:38.135Z</time>
      </trkpt>
      <trkpt lat="33.008187" lon="35.147907">
        <ele>59.817279</ele>
        <time>2022-10-25T15:49:02.397Z</time>
      </trkpt>
      <trkpt lat="33.008420" lon="35.147302">
        <ele>58.282218</ele>
        <time>2022-10-25T15:49:16.927Z</time>
      </trkpt>
      <trkpt lat="33.009033" lon="35.146099">
        <ele>58.344488</ele>
        <time>2022-10-25T15:49:51.646Z</time>
      </trkpt>
      <trkpt lat="33.009366" lon="35.145739">
        <ele>58.706177</ele>
        <time>2022-10-25T15:50:10.379Z</time>
      </trkpt>
      <trkpt lat="33.009448" lon="35.146278">
        <ele>59.042901</ele>
        <time>2022-10-25T15:50:33.225Z</time>
      </trkpt>
      <trkpt lat="33.009587" lon="35.146714">
        <ele>59.042901</ele>
        <time>2022-10-25T15:50:53.225Z</time>
      </trkpt>
      <trkpt lat="33.009743" lon="35.147621">
        <ele>59.042901</ele>
        <time>2022-10-25T15:51:33.676Z</time>
      </trkpt>
      <trkpt lat="33.009753" lon="35.147705">
        <ele>59.042901</ele>
        <time>2022-10-25T15:51:38.158Z</time>
      </trkpt>
    </trkseg>
  </trk>
</gpx>